Observation data for Fort Lancaster on 03/24/2019      Previous  Date  Next       Current Mesonet Observations  Soil Data  Daily Summary Page  Observations in Plain Language
KLA1 240500Z 12006KT 19/14 A3005 RMK A01 T01860144  RH  076%=      5-min Rain = 0
KLA1 240501Z 12006KT 19/14 A3005 RMK A01 T01860144  RH  076%=      5-min Rain = 0
KLA1 240502Z 12006KT 19/14 A3005 RMK A01 T01850143  RH  076%=      5-min Rain = 0
KLA1 240503Z 12007KT 19/14 A3005 RMK A01 T01850143  RH  077%=      5-min Rain = 0
KLA1 240504Z 12007KT 19/14 A3005 RMK A01 T01850144  RH  077%=      5-min Rain = 0
KLA1 240505Z 12007KT 19/14 A3005 RMK A01 T01850144  RH  077%=      5-min Rain = 0
KLA1 240506Z 13007KT 19/14 A3005 RMK A01 T01850143  RH  077%=      5-min Rain = 0
KLA1 240507Z 13006KT 19/14 A3005 RMK A01 T01850144  RH  077%=      5-min Rain = 0
KLA1 240508Z 12006KT 18/14 A3005 RMK A01 T01840143  RH  077%=      5-min Rain = 0
KLA1 240509Z 13004KT 18/14 A3005 RMK A01 T01830143  RH  078%=      5-min Rain = 0
KLA1 240510Z 12005KT 18/14 A3005 RMK A01 T01820143  RH  078%=      5-min Rain = 0
KLA1 240511Z 11006KT 18/14 A3005 RMK A01 T01810143  RH  078%=      5-min Rain = 0
KLA1 240512Z 12006KT 18/14 A3005 RMK A01 T01810143  RH  078%=      5-min Rain = 0
KLA1 240513Z 12006KT 18/14 A3005 RMK A01 T01820144  RH  078%=      5-min Rain = 0
KLA1 240514Z 12006KT 18/14 A3005 RMK A01 T01820144  RH  079%=      5-min Rain = 0
KLA1 240515Z 13006KT 18/14 A3005 RMK A01 T01810144  RH  079%=      5-min Rain = 0
KLA1 240516Z 13006KT 18/14 A3005 RMK A01 T01810144  RH  079%=      5-min Rain = 0
KLA1 240517Z 13006KT 18/14 A3005 RMK A01 T01810144  RH  079%=      5-min Rain = 0
KLA1 240518Z 13005KT 18/14 A3005 RMK A01 T01800144  RH  079%=      5-min Rain = 0
KLA1 240519Z 13005KT 18/14 A3005 RMK A01 T01790143  RH  079%=      5-min Rain = 0
KLA1 240520Z 13006KT 18/14 A3005 RMK A01 T01790144  RH  080%=      5-min Rain = 0
KLA1 240521Z 13006KT 18/14 A3005 RMK A01 T01780144  RH  080%=      5-min Rain = 0
KLA1 240522Z 14007KT 18/14 A3005 RMK A01 T01780144  RH  080%=      5-min Rain = 0
KLA1 240523Z 13007KT 18/14 A3005 RMK A01 T01780144  RH  081%=      5-min Rain = 0
KLA1 240524Z 12006KT 18/15 A3005 RMK A01 T01780145  RH  081%=      5-min Rain = 0
KLA1 240525Z 11005KT 18/14 A3005 RMK A01 T01780144  RH  081%=      5-min Rain = 0
KLA1 240526Z 12005KT 18/14 A3005 RMK A01 T01770144  RH  081%=      5-min Rain = 0
KLA1 240527Z 12006KT 18/15 A3005 RMK A01 T01760145  RH  082%=      5-min Rain = 0
KLA1 240528Z 12005KT 18/15 A3005 RMK A01 T01770145  RH  081%=      5-min Rain = 0
KLA1 240529Z 12004KT 18/15 A3005 RMK A01 T01770145  RH  081%=      5-min Rain = 0
KLA1 240530Z 12005KT 18/15 A3005 RMK A01 T01770145  RH  081%=      5-min Rain = 0
KLA1 240531Z 12004KT 18/15 A3005 RMK A01 T01770145  RH  082%=      5-min Rain = 0
KLA1 240532Z 12004KT 18/15 A3005 RMK A01 T01760145  RH  082%=      5-min Rain = 0
KLA1 240533Z 12004KT 18/15 A3005 RMK A01 T01760145  RH  082%=      5-min Rain = 0
KLA1 240534Z 12004KT 18/15 A3005 RMK A01 T01760145  RH  082%=      5-min Rain = 0
KLA1 240535Z 12004KT 18/15 A3005 RMK A01 T01760145  RH  082%=      5-min Rain = 0
KLA1 240536Z 12005KT 18/15 A3005 RMK A01 T01760146  RH  082%=      5-min Rain = 0
KLA1 240537Z 12005KT 18/15 A3005 RMK A01 T01760146  RH  082%=      5-min Rain = 0
KLA1 240538Z 12005KT 18/15 A3005 RMK A01 T01760146  RH  082%=      5-min Rain = 0
KLA1 240539Z 12006KT 18/15 A3005 RMK A01 T01760146  RH  082%=      5-min Rain = 0
KLA1 240540Z 12005KT 18/15 A3005 RMK A01 T01770147  RH  082%=      5-min Rain = 0
KLA1 240541Z 11005KT 18/15 A3005 RMK A01 T01780147  RH  082%=      5-min Rain = 0
KLA1 240542Z 11005KT 18/15 A3005 RMK A01 T01790147  RH  082%=      5-min Rain = 0
KLA1 240543Z 12005KT 18/15 A3005 RMK A01 T01790147  RH  081%=      5-min Rain = 0
KLA1 240544Z 12006KT 18/15 A3005 RMK A01 T01790147  RH  081%=      5-min Rain = 0
KLA1 240545Z 13005KT 18/15 A3005 RMK A01 T01800147  RH  081%=      5-min Rain = 0
KLA1 240546Z 12005KT 18/15 A3005 RMK A01 T01790147  RH  081%=      5-min Rain = 0
KLA1 240547Z 12006KT 18/15 A3005 RMK A01 T01790147  RH  082%=      5-min Rain = 0
KLA1 240548Z 12005KT 18/15 A3005 RMK A01 T01790148  RH  082%=      5-min Rain = 0
KLA1 240549Z 12006KT 18/15 A3005 RMK A01 T01790147  RH  082%=      5-min Rain = 0
KLA1 240550Z 12005KT 18/15 A3005 RMK A01 T01790148  RH  082%=      5-min Rain = 0
KLA1 240551Z 12004KT 18/15 A3005 RMK A01 T01780147  RH  082%=      5-min Rain = 0
KLA1 240552Z 12005KT 18/15 A3005 RMK A01 T01780147  RH  082%=      5-min Rain = 0
KLA1 240553Z 12005KT 18/15 A3005 RMK A01 T01780148  RH  082%=      5-min Rain = 0
KLA1 240554Z 12005KT 18/15 A3005 RMK A01 T01780148  RH  082%=      5-min Rain = 0
KLA1 240555Z 12005KT 18/15 A3005 RMK A01 T01770148  RH  083%=      5-min Rain = 0
KLA1 240556Z 12005KT 18/15 A3005 RMK A01 T01770148  RH  083%=      5-min Rain = 0
KLA1 240557Z 12005KT 18/15 A3005 RMK A01 T01770148  RH  083%=      5-min Rain = 0
KLA1 240558Z 12004KT 18/15 A3005 RMK A01 T01770148  RH  083%=      5-min Rain = 0
KLA1 240559Z 11004KT 18/15 A3005 RMK A01 T01760148  RH  083%=      5-min Rain = 0
KLA1 240600Z 11005KT 18/15 A3005 RMK A01 T01760148  RH  084%=      5-min Rain = 0
KLA1 240601Z 11005KT 18/15 A3005 RMK A01 T01750149  RH  084%=      5-min Rain = 0
KLA1 240602Z 11004KT 18/15 A3005 RMK A01 T01760149  RH  084%=      5-min Rain = 0
KLA1 240603Z 11005KT 18/15 A3005 RMK A01 T01760149  RH  084%=      5-min Rain = 0
KLA1 240604Z 12005KT 18/15 A3005 RMK A01 T01750149  RH  084%=      5-min Rain = 0
KLA1 240605Z 12005KT 18/15 A3005 RMK A01 T01750149  RH  085%=      5-min Rain = 0
KLA1 240606Z 11005KT 18/15 A3005 RMK A01 T01760149  RH  085%=      5-min Rain = 0
KLA1 240607Z 11005KT 18/15 A3005 RMK A01 T01760149  RH  084%=      5-min Rain = 0
KLA1 240608Z 11005KT 18/15 A3005 RMK A01 T01750149  RH  085%=      5-min Rain = 0
KLA1 240609Z 12005KT 18/15 A3005 RMK A01 T01750149  RH  085%=      5-min Rain = 0
KLA1 240610Z 11005KT 18/15 A3005 RMK A01 T01750150  RH  085%=      5-min Rain = 0
KLA1 240611Z 11005KT 18/15 A3005 RMK A01 T01750150  RH  085%=      5-min Rain = 0
KLA1 240612Z 11005KT 18/15 A3004 RMK A01 T01750150  RH  086%=      5-min Rain = 0
KLA1 240613Z 11005KT 18/15 A3004 RMK A01 T01750150  RH  086%=      5-min Rain = 0
KLA1 240614Z 11006KT 18/15 A3004 RMK A01 T01750150  RH  086%=      5-min Rain = 0
KLA1 240615Z 12005KT 17/15 A3004 RMK A01 T01740150  RH  086%=      5-min Rain = 0
KLA1 240616Z 11005KT 17/15 A3004 RMK A01 T01740150  RH  086%=      5-min Rain = 0
KLA1 240617Z 12004KT 17/15 A3004 RMK A01 T01740150  RH  086%=      5-min Rain = 0
KLA1 240618Z 11005KT 17/15 A3004 RMK A01 T01740150  RH  086%=      5-min Rain = 0
KLA1 240619Z 11005KT 17/15 A3004 RMK A01 T01730150  RH  086%=      5-min Rain = 0
KLA1 240620Z 11005KT 17/15 A3004 RMK A01 T01730150  RH  087%=      5-min Rain = 0
KLA1 240621Z 11005KT 17/15 A3004 RMK A01 T01730150  RH  087%=      5-min Rain = 0
KLA1 240622Z 11006KT 17/15 A3004 RMK A01 T01730151  RH  087%=      5-min Rain = 0
KLA1 240623Z 12006KT 17/15 A3004 RMK A01 T01720151  RH  087%=      5-min Rain = 0
KLA1 240624Z 11006KT 17/15 A3004 RMK A01 T01730151  RH  087%=      5-min Rain = 0
KLA1 240625Z 11005KT 17/15 A3004 RMK A01 T01720150  RH  087%=      5-min Rain = 0
KLA1 240626Z 12005KT 17/15 A3004 RMK A01 T01720151  RH  087%=      5-min Rain = 0
KLA1 240627Z 11006KT 17/15 A3004 RMK A01 T01720151  RH  087%=      5-min Rain = 0
KLA1 240628Z 11004KT 17/15 A3004 RMK A01 T01720151  RH  087%=      5-min Rain = 0
KLA1 240629Z 12005KT 17/15 A3004 RMK A01 T01720151  RH  087%=      5-min Rain = 0
KLA1 240630Z 12005KT 17/15 A3004 RMK A01 T01720151  RH  087%=      5-min Rain = 0
KLA1 240631Z 11005KT 17/15 A3004 RMK A01 T01720151  RH  088%=      5-min Rain = 0
KLA1 240632Z 11005KT 17/15 A3004 RMK A01 T01720151  RH  088%=      5-min Rain = 0
KLA1 240633Z 11005KT 17/15 A3004 RMK A01 T01710151  RH  088%=      5-min Rain = 0
KLA1 240634Z 11005KT 17/15 A3004 RMK A01 T01710152  RH  088%=      5-min Rain = 0
KLA1 240635Z 11006KT 17/15 A3004 RMK A01 T01710152  RH  089%=      5-min Rain = 0
KLA1 240636Z 11006KT 17/15 A3004 RMK A01 T01710152  RH  088%=      5-min Rain = 0
KLA1 240637Z 11005KT 17/15 A3003 RMK A01 T01710151  RH  088%=      5-min Rain = 0
KLA1 240638Z 10006KT 17/15 A3003 RMK A01 T01710152  RH  088%=      5-min Rain = 0
KLA1 240639Z 10005KT 17/15 A3003 RMK A01 T01720152  RH  088%=      5-min Rain = 0
KLA1 240640Z 11006KT 17/15 A3003 RMK A01 T01720152  RH  088%=      5-min Rain = 0
KLA1 240641Z 11005KT 17/15 A3003 RMK A01 T01720152  RH  088%=      5-min Rain = 0
KLA1 240642Z 10005KT 17/15 A3003 RMK A01 T01720152  RH  088%=      5-min Rain = 0
KLA1 240643Z 09004KT 17/15 A3003 RMK A01 T01730152  RH  088%=      5-min Rain = 0
KLA1 240644Z 11006KT 17/15 A3003 RMK A01 T01730152  RH  087%=      5-min Rain = 0
KLA1 240645Z 10006KT 17/15 A3003 RMK A01 T01730152  RH  087%=      5-min Rain = 0
KLA1 240646Z 10007KT 17/15 A3003 RMK A01 T01730151  RH  087%=      5-min Rain = 0
KLA1 240647Z 10006KT 17/15 A3003 RMK A01 T01730151  RH  087%=      5-min Rain = 0
KLA1 240648Z 10005KT 17/15 A3003 RMK A01 T01730151  RH  087%=      5-min Rain = 0
KLA1 240649Z 10005KT 17/15 A3003 RMK A01 T01730151  RH  087%=      5-min Rain = 0
KLA1 240650Z 10006KT 17/15 A3003 RMK A01 T01730151  RH  087%=      5-min Rain = 0
KLA1 240651Z 10006KT 17/15 A3003 RMK A01 T01730152  RH  087%=      5-min Rain = 0
KLA1 240652Z 10005KT 17/15 A3003 RMK A01 T01730151  RH  087%=      5-min Rain = 0
KLA1 240653Z 08003KT 17/15 A3003 RMK A01 T01730151  RH  087%=      5-min Rain = 0
KLA1 240654Z 10004KT 17/15 A3003 RMK A01 T01730151  RH  087%=      5-min Rain = 0
KLA1 240655Z 09003KT 17/15 A3003 RMK A01 T01720152  RH  088%=      5-min Rain = 0
KLA1 240656Z 11006KT 17/15 A3003 RMK A01 T01720151  RH  087%=      5-min Rain = 0
KLA1 240657Z 10005KT 17/15 A3003 RMK A01 T01720152  RH  088%=      5-min Rain = 0
KLA1 240658Z 10004KT 17/15 A3003 RMK A01 T01720152  RH  088%=      5-min Rain = 0
KLA1 240659Z 10004KT 17/15 A3003 RMK A01 T01720152  RH  088%=      5-min Rain = 0
KLA1 240700Z 10006KT 17/15 A3003 RMK A01 T01710152  RH  088%=      5-min Rain = 0
KLA1 240701Z 10006KT 17/15 A3003 RMK A01 T01720153  RH  089%=      5-min Rain = 0
KLA1 240702Z 10005KT 17/15 A3003 RMK A01 T01720153  RH  088%=      5-min Rain = 0
KLA1 240703Z 11004KT 17/15 A3003 RMK A01 T01720152  RH  088%=      5-min Rain = 0
KLA1 240704Z 10004KT 17/15 A3003 RMK A01 T01720153  RH  088%=      5-min Rain = 0
KLA1 240705Z 10005KT 17/15 A3003 RMK A01 T01720152  RH  088%=      5-min Rain = 0
KLA1 240706Z 10005KT 17/15 A3003 RMK A01 T01720152  RH  088%=      5-min Rain = 0
KLA1 240707Z 09004KT 17/15 A3003 RMK A01 T01720152  RH  088%=      5-min Rain = 0
KLA1 240708Z 10004KT 17/15 A3003 RMK A01 T01720153  RH  088%=      5-min Rain = 0
KLA1 240709Z 11005KT 17/15 A3003 RMK A01 T01720153  RH  088%=      5-min Rain = 0
KLA1 240710Z 11006KT 17/15 A3003 RMK A01 T01710152  RH  088%=      5-min Rain = 0
KLA1 240711Z 10006KT 17/15 A3003 RMK A01 T01710153  RH  089%=      5-min Rain = 0
KLA1 240712Z 10006KT 17/15 A3003 RMK A01 T01710152  RH  089%=      5-min Rain = 0
KLA1 240713Z 10005KT 17/15 A3003 RMK A01 T01710152  RH  089%=      5-min Rain = 0
KLA1 240714Z 11005KT 17/15 A3003 RMK A01 T01720153  RH  089%=      5-min Rain = 0
KLA1 240715Z 10005KT 17/15 A3003 RMK A01 T01710152  RH  089%=      5-min Rain = 0
KLA1 240716Z 11005KT 17/15 A3003 RMK A01 T01710153  RH  089%=      5-min Rain = 0
KLA1 240717Z 11005KT 17/15 A3003 RMK A01 T01700153  RH  090%=      5-min Rain = 0
KLA1 240718Z 11004KT 17/15 A3003 RMK A01 T01700153  RH  090%=      5-min Rain = 0
KLA1 240719Z 11006KT 17/15 A3003 RMK A01 T01710153  RH  090%=      5-min Rain = 0
KLA1 240720Z 10005KT 17/15 A3003 RMK A01 T01700153  RH  089%=      5-min Rain = 0
KLA1 240721Z 11005KT 17/15 A3003 RMK A01 T01700153  RH  089%=      5-min Rain = 0
KLA1 240722Z 11004KT 17/15 A3003 RMK A01 T01700153  RH  090%=      5-min Rain = 0
KLA1 240723Z 10004KT 17/15 A3003 RMK A01 T01700153  RH  089%=      5-min Rain = 0
KLA1 240724Z 11005KT 17/15 A3003 RMK A01 T01700153  RH  089%=      5-min Rain = 0
KLA1 240725Z 11005KT 17/15 A3003 RMK A01 T01700153  RH  090%=      5-min Rain = 0
KLA1 240726Z 11005KT 17/15 A3003 RMK A01 T01700153  RH  090%=      5-min Rain = 0
KLA1 240727Z 11004KT 17/15 A3003 RMK A01 T01700153  RH  090%=      5-min Rain = 0
KLA1 240728Z 11006KT 17/15 A3003 RMK A01 T01690153  RH  090%=      5-min Rain = 0
KLA1 240729Z 11005KT 17/15 A3003 RMK A01 T01690154  RH  091%=      5-min Rain = 0
KLA1 240730Z 11005KT 17/15 A3003 RMK A01 T01690153  RH  090%=      5-min Rain = 0
KLA1 240731Z 10004KT 17/15 A3003 RMK A01 T01690153  RH  090%=      5-min Rain = 0
KLA1 240732Z 10004KT 17/15 A3003 RMK A01 T01690153  RH  090%=      5-min Rain = 0
KLA1 240733Z 11005KT 17/15 A3003 RMK A01 T01680153  RH  090%=      5-min Rain = 0
KLA1 240734Z 12004KT 17/15 A3003 RMK A01 T01680153  RH  091%=      5-min Rain = 0
KLA1 240735Z 10004KT 17/15 A3003 RMK A01 T01680153  RH  091%=      5-min Rain = 0
KLA1 240736Z 11004KT 17/15 A3003 RMK A01 T01680153  RH  091%=      5-min Rain = 0
KLA1 240737Z 11004KT 17/15 A3003 RMK A01 T01680154  RH  091%=      5-min Rain = 0
KLA1 240738Z 11004KT 17/15 A3003 RMK A01 T01680154  RH  092%=      5-min Rain = 0
KLA1 240739Z 11003KT 17/15 A3003 RMK A01 T01670154  RH  092%=      5-min Rain = 0
KLA1 240740Z 11003KT 17/15 A3003 RMK A01 T01670154  RH  092%=      5-min Rain = 0
KLA1 240741Z 11004KT 17/15 A3003 RMK A01 T01670154  RH  092%=      5-min Rain = 0
KLA1 240742Z 11004KT 17/16 A3003 RMK A01 T01670155  RH  092%=      5-min Rain = 0
KLA1 240743Z 11004KT 17/15 A3003 RMK A01 T01670154  RH  092%=      5-min Rain = 0
KLA1 240744Z 11005KT 17/15 A3003 RMK A01 T01670154  RH  092%=      5-min Rain = 0
KLA1 240745Z 12004KT 17/16 A3003 RMK A01 T01680155  RH  092%=      5-min Rain = 0
KLA1 240746Z 12002KT 17/16 A3003 RMK A01 T01680155  RH  092%=      5-min Rain = 0
KLA1 240747Z 12003KT 17/16 A3003 RMK A01 T01690155  RH  092%=      5-min Rain = 0
KLA1 240748Z 12002KT 17/16 A3003 RMK A01 T01690155  RH  091%=      5-min Rain = 0
KLA1 240749Z 12004KT 17/15 A3003 RMK A01 T01680154  RH  091%=      5-min Rain = 0
KLA1 240750Z 12003KT 17/15 A3003 RMK A01 T01690154  RH  091%=      5-min Rain = 0
KLA1 240751Z 11004KT 17/15 A3003 RMK A01 T01690154  RH  091%=      5-min Rain = 0
KLA1 240752Z 12003KT 17/16 A3003 RMK A01 T01690155  RH  091%=      5-min Rain = 0
KLA1 240753Z 12003KT 17/15 A3003 RMK A01 T01690154  RH  091%=      5-min Rain = 0
KLA1 240754Z 11003KT 17/16 A3003 RMK A01 T01690155  RH  091%=      5-min Rain = 0
KLA1 240755Z 10002KT 17/15 A3003 RMK A01 T01690154  RH  091%=      5-min Rain = 0
KLA1 240756Z 10002KT 17/15 A3003 RMK A01 T01690154  RH  091%=      5-min Rain = 0
KLA1 240757Z 10003KT 17/16 A3003 RMK A01 T01690155  RH  091%=      5-min Rain = 0
KLA1 240758Z 11002KT 17/16 A3003 RMK A01 T01700155  RH  091%=      5-min Rain = 0
KLA1 240759Z 10004KT 17/16 A3003 RMK A01 T01700155  RH  091%=      5-min Rain = 0
KLA1 240800Z 12004KT 17/16 A3003 RMK A01 T01700155  RH  091%=      5-min Rain = 0
KLA1 240801Z 11004KT 17/16 A3003 RMK A01 T01700155  RH  091%=      5-min Rain = 0
KLA1 240802Z 11004KT 17/16 A3003 RMK A01 T01710155  RH  090%=      5-min Rain = 0
KLA1 240803Z 10004KT 17/16 A3003 RMK A01 T01710155  RH  090%=      5-min Rain = 0
KLA1 240804Z 11004KT 17/16 A3003 RMK A01 T01710155  RH  090%=      5-min Rain = 0
KLA1 240805Z 12004KT 17/16 A3003 RMK A01 T01710155  RH  090%=      5-min Rain = 0
KLA1 240806Z 12004KT 17/16 A3003 RMK A01 T01720155  RH  090%=      5-min Rain = 0
KLA1 240807Z 14005KT 17/15 A3003 RMK A01 T01710154  RH  090%=      5-min Rain = 0
KLA1 240808Z 13004KT 17/16 A3003 RMK A01 T01720155  RH  090%=      5-min Rain = 0
KLA1 240809Z 13005KT 17/16 A3003 RMK A01 T01720155  RH  090%=      5-min Rain = 0
KLA1 240810Z 12005KT 17/16 A3003 RMK A01 T01720155  RH  090%=      5-min Rain = 0
KLA1 240811Z 12005KT 17/16 A3003 RMK A01 T01720155  RH  090%=      5-min Rain = 0
KLA1 240812Z 12005KT 17/16 A3003 RMK A01 T01720155  RH  090%=      5-min Rain = 0
KLA1 240813Z 12006KT 17/16 A3003 RMK A01 T01720155  RH  090%=      5-min Rain = 0
KLA1 240814Z 12007KT 17/16 A3003 RMK A01 T01720155  RH  090%=      5-min Rain = 0
KLA1 240815Z 12005KT 17/16 A3003 RMK A01 T01720155  RH  090%=      5-min Rain = 0
KLA1 240816Z 13006KT 17/16 A3003 RMK A01 T01720155  RH  090%=      5-min Rain = 0
KLA1 240817Z 12007KT 17/16 A3003 RMK A01 T01720155  RH  090%=      5-min Rain = 0
KLA1 240818Z 13008KT 17/16 A3003 RMK A01 T01720155  RH  090%=      5-min Rain = 0
KLA1 240819Z 13007KT 17/16 A3003 RMK A01 T01720155  RH  090%=      5-min Rain = 0
KLA1 240820Z 13007KT 17/16 A3003 RMK A01 T01720156  RH  090%=      5-min Rain = 0
KLA1 240821Z 13005KT 17/16 A3003 RMK A01 T01720155  RH  090%=      5-min Rain = 0
KLA1 240822Z 12006KT 17/16 A3003 RMK A01 T01720156  RH  090%=      5-min Rain = 0
KLA1 240823Z 13007KT 17/16 A3003 RMK A01 T01720156  RH  090%=      5-min Rain = 0
KLA1 240824Z 12007KT 17/16 A3003 RMK A01 T01720156  RH  090%=      5-min Rain = 0
KLA1 240825Z 13007KT 17/16 A3003 RMK A01 T01730156  RH  090%=      5-min Rain = 0
KLA1 240826Z 13006KT 17/16 A3003 RMK A01 T01730157  RH  090%=      5-min Rain = 0
KLA1 240827Z 13007KT 17/16 A3003 RMK A01 T01720156  RH  090%=      5-min Rain = 0
KLA1 240828Z 13007KT 17/16 A3003 RMK A01 T01720157  RH  090%=      5-min Rain = 0
KLA1 240829Z 13007KT 17/16 A3003 RMK A01 T01720157  RH  090%=      5-min Rain = 0
KLA1 240830Z 12006KT 17/16 A3003 RMK A01 T01720157  RH  090%=      5-min Rain = 0
KLA1 240831Z 13006KT 17/16 A3003 RMK A01 T01720157  RH  091%=      5-min Rain = 0
KLA1 240832Z 13006KT 17/16 A3003 RMK A01 T01720157  RH  091%=      5-min Rain = 0
KLA1 240833Z 13006KT 17/16 A3003 RMK A01 T01730158  RH  091%=      5-min Rain = 0
KLA1 240834Z 13005KT 17/16 A3003 RMK A01 T01730158  RH  091%=      5-min Rain = 0
KLA1 240835Z 13005KT 17/16 A3003 RMK A01 T01730158  RH  091%=      5-min Rain = 0
KLA1 240836Z 13006KT 17/16 A3003 RMK A01 T01720157  RH  091%=      5-min Rain = 0
KLA1 240837Z 13006KT 17/16 A3003 RMK A01 T01720158  RH  091%=      5-min Rain = 0
KLA1 240838Z 14005KT 17/16 A3003 RMK A01 T01730158  RH  091%=      5-min Rain = 0
KLA1 240839Z 13005KT 17/16 A3003 RMK A01 T01730158  RH  091%=      5-min Rain = 0
KLA1 240840Z 13006KT 17/16 A3003 RMK A01 T01730158  RH  091%=      5-min Rain = 0
KLA1 240841Z 13005KT 17/16 A3003 RMK A01 T01730158  RH  091%=      5-min Rain = 0
KLA1 240842Z 13005KT 17/16 A3003 RMK A01 T01730158  RH  091%=      5-min Rain = 0
KLA1 240843Z 13005KT 17/16 A3003 RMK A01 T01730159  RH  091%=      5-min Rain = 0
KLA1 240844Z 13006KT 17/16 A3003 RMK A01 T01730159  RH  091%=      5-min Rain = 0
KLA1 240845Z 13005KT 17/16 A3003 RMK A01 T01730159  RH  091%=      5-min Rain = 0
KLA1 240846Z 13005KT 17/16 A3003 RMK A01 T01730159  RH  091%=      5-min Rain = 0
KLA1 240847Z 14005KT 17/16 A3003 RMK A01 T01740160  RH  091%=      5-min Rain = 0
KLA1 240848Z 13006KT 17/16 A3003 RMK A01 T01740160  RH  091%=      5-min Rain = 0
KLA1 240849Z 14006KT 17/16 A3003 RMK A01 T01740160  RH  091%=      5-min Rain = 0
KLA1 240850Z 13005KT 17/16 A3003 RMK A01 T01740160  RH  091%=      5-min Rain = 0
KLA1 240851Z 13006KT 17/16 A3002 RMK A01 T01740160  RH  091%=      5-min Rain = 0
KLA1 240852Z 14006KT 17/16 A3002 RMK A01 T01740160  RH  091%=      5-min Rain = 0
KLA1 240853Z 13005KT 17/16 A3002 RMK A01 T01740160  RH  091%=      5-min Rain = 0
KLA1 240854Z 14006KT 17/16 A3002 RMK A01 T01740160  RH  091%=      5-min Rain = 0
KLA1 240855Z 15006KT 17/16 A3002 RMK A01 T01740160  RH  091%=      5-min Rain = 0
KLA1 240856Z 13008KT 17/16 A3002 RMK A01 T01740161  RH  092%=      5-min Rain = 0
KLA1 240857Z 13008KT 18/16 A3002 RMK A01 T01750161  RH  092%=      5-min Rain = 0
KLA1 240858Z 14006KT 18/16 A3002 RMK A01 T01750161  RH  091%=      5-min Rain = 0
KLA1 240859Z 13007KT 18/16 A3002 RMK A01 T01750161  RH  091%=      5-min Rain = 0
KLA1 240900Z 13006KT 18/16 A3002 RMK A01 T01760161  RH  091%=      5-min Rain = 0
KLA1 240901Z 13006KT 18/16 A3002 RMK A01 T01760161  RH  091%=      5-min Rain = 0
KLA1 240902Z 13006KT 18/16 A3002 RMK A01 T01760161  RH  091%=      5-min Rain = 0
KLA1 240903Z 13005KT 18/16 A3002 RMK A01 T01760161  RH  091%=      5-min Rain = 0
KLA1 240904Z 13005KT 18/16 A3002 RMK A01 T01760161  RH  091%=      5-min Rain = 0
KLA1 240905Z 13005KT 18/16 A3002 RMK A01 T01760161  RH  091%=      5-min Rain = 0
KLA1 240906Z 13006KT 18/16 A3002 RMK A01 T01760161  RH  091%=      5-min Rain = 0
KLA1 240907Z 13007KT 18/16 A3002 RMK A01 T01760161  RH  091%=      5-min Rain = 0
KLA1 240908Z 13007KT 18/16 A3002 RMK A01 T01760161  RH  091%=      5-min Rain = 0
KLA1 240909Z 14006KT 18/16 A3002 RMK A01 T01760162  RH  091%=      5-min Rain = 0
KLA1 240910Z 13006KT 18/16 A3002 RMK A01 T01760162  RH  091%=      5-min Rain = 0
KLA1 240911Z 14005KT 18/16 A3002 RMK A01 T01760162  RH  091%=      5-min Rain = 0
KLA1 240912Z 14005KT 18/16 A3002 RMK A01 T01760162  RH  091%=      5-min Rain = 0
KLA1 240913Z 13005KT 18/16 A3002 RMK A01 T01760162  RH  091%=      5-min Rain = 0
KLA1 240914Z 14006KT 18/16 A3002 RMK A01 T01770162  RH  091%=      5-min Rain = 0
KLA1 240915Z 14006KT 18/16 A3002 RMK A01 T01770162  RH  091%=      5-min Rain = 0
KLA1 240916Z 15005KT 18/16 A3002 RMK A01 T01760162  RH  091%=      5-min Rain = 0
KLA1 240917Z 16007KT 18/16 A3002 RMK A01 T01760162  RH  091%=      5-min Rain = 0
KLA1 240918Z 15006KT 18/16 A3002 RMK A01 T01770162  RH  091%=      5-min Rain = 0
KLA1 240919Z 15007KT 18/16 A3002 RMK A01 T01770162  RH  091%=      5-min Rain = 0
KLA1 240920Z 16009KT 18/16 A3002 RMK A01 T01780162  RH  091%=      5-min Rain = 0
KLA1 240921Z 15006KT 18/16 A3002 RMK A01 T01780162  RH  090%=      5-min Rain = 0
KLA1 240922Z 15005KT 18/16 A3002 RMK A01 T01790162  RH  090%=      5-min Rain = 0
KLA1 240923Z 13005KT 18/16 A3002 RMK A01 T01790162  RH  090%=      5-min Rain = 0
KLA1 240924Z 15006KT 18/16 A3002 RMK A01 T01790161  RH  090%=      5-min Rain = 0
KLA1 240925Z 14007KT 18/16 A3002 RMK A01 T01790161  RH  090%=      5-min Rain = 0
KLA1 240926Z 13008KT 18/16 A3002 RMK A01 T01790161  RH  089%=      5-min Rain = 0
KLA1 240927Z 15008KT 18/16 A3002 RMK A01 T01790161  RH  089%=      5-min Rain = 0
KLA1 240928Z 14006KT 18/16 A3002 RMK A01 T01800161  RH  089%=      5-min Rain = 0
KLA1 240929Z 15005KT 18/16 A3002 RMK A01 T01800161  RH  089%=      5-min Rain = 0
KLA1 240930Z 15005KT 18/16 A3002 RMK A01 T01800161  RH  089%=      5-min Rain = 0
KLA1 240931Z 15006KT 18/16 A3002 RMK A01 T01800161  RH  089%=      5-min Rain = 0
KLA1 240932Z 14007KT 18/16 A3002 RMK A01 T01800161  RH  089%=      5-min Rain = 0
KLA1 240933Z 15009KT 18/16 A3002 RMK A01 T01800161  RH  089%=      5-min Rain = 0
KLA1 240934Z 15008KT 18/16 A3002 RMK A01 T01800161  RH  088%=      5-min Rain = 0
KLA1 240935Z 15006KT 18/16 A3002 RMK A01 T01810161  RH  088%=      5-min Rain = 0
KLA1 240936Z 14007KT 18/16 A3002 RMK A01 T01810161  RH  088%=      5-min Rain = 0
KLA1 240937Z 14005KT 18/16 A3002 RMK A01 T01810161  RH  088%=      5-min Rain = 0
KLA1 240938Z 15005KT 18/16 A3002 RMK A01 T01810161  RH  088%=      5-min Rain = 0
KLA1 240939Z 15006KT 18/16 A3002 RMK A01 T01810161  RH  088%=      5-min Rain = 0
KLA1 240940Z 15007KT 18/16 A3002 RMK A01 T01810161  RH  088%=      5-min Rain = 0
KLA1 240941Z 16009KT 18/16 A3002 RMK A01 T01810161  RH  088%=      5-min Rain = 0
KLA1 240942Z 17008KT 18/16 A3002 RMK A01 T01810160  RH  088%=      5-min Rain = 0
KLA1 240943Z 15006KT 18/16 A3002 RMK A01 T01810160  RH  088%=      5-min Rain = 0
KLA1 240944Z 15006KT 18/16 A3002 RMK A01 T01810160  RH  088%=      5-min Rain = 0
KLA1 240945Z 16007KT 18/16 A3002 RMK A01 T01810161  RH  088%=      5-min Rain = 0
KLA1 240946Z 14009KT 18/16 A3002 RMK A01 T01810161  RH  088%=      5-min Rain = 0
KLA1 240947Z 15008KT 18/16 A3002 RMK A01 T01810160  RH  088%=      5-min Rain = 0
KLA1 240948Z 14010KT 18/16 A3002 RMK A01 T01810160  RH  087%=      5-min Rain = 0
KLA1 240949Z 14007KT 18/16 A3002 RMK A01 T01810160  RH  087%=      5-min Rain = 0
KLA1 240950Z 15009KT 18/16 A3002 RMK A01 T01810160  RH  087%=      5-min Rain = 0
KLA1 240951Z 16007KT 18/16 A3002 RMK A01 T01810160  RH  087%=      5-min Rain = 0
KLA1 240952Z 15008KT 18/16 A3002 RMK A01 T01810160  RH  087%=      5-min Rain = 0
KLA1 240953Z 15008KT 18/16 A3002 RMK A01 T01810160  RH  087%=      5-min Rain = 0
KLA1 240954Z 15009KT 18/16 A3002 RMK A01 T01810160  RH  087%=      5-min Rain = 0
KLA1 240955Z 16008KT 18/16 A3002 RMK A01 T01810159  RH  087%=      5-min Rain = 0
KLA1 240956Z 15008KT 18/16 A3002 RMK A01 T01810159  RH  087%=      5-min Rain = 0
KLA1 240957Z 16010KT 18/16 A3002 RMK A01 T01810159  RH  087%=      5-min Rain = 0
KLA1 240958Z 14008KT 18/16 A3002 RMK A01 T01810159  RH  087%=      5-min Rain = 0
KLA1 240959Z 15007KT 18/16 A3002 RMK A01 T01810159  RH  087%=      5-min Rain = 0
KLA1 241000Z 16006KT 18/16 A3002 RMK A01 T01810159  RH  087%=      5-min Rain = 0
KLA1 241001Z 16006KT 18/16 A3002 RMK A01 T01810159  RH  087%=      5-min Rain = 0
KLA1 241002Z 15007KT 18/16 A3002 RMK A01 T01810160  RH  087%=      5-min Rain = 0
KLA1 241003Z 16007KT 18/16 A3002 RMK A01 T01810160  RH  087%=      5-min Rain = 0
KLA1 241004Z 15008KT 18/16 A3002 RMK A01 T01810159  RH  087%=      5-min Rain = 0
KLA1 241005Z 15007KT 18/16 A3002 RMK A01 T01810160  RH  087%=      5-min Rain = 0
KLA1 241006Z 15008KT 18/16 A3002 RMK A01 T01810159  RH  087%=      5-min Rain = 0
KLA1 241007Z 15008KT 18/16 A3002 RMK A01 T01810159  RH  087%=      5-min Rain = 0
KLA1 241008Z 15008KT 18/16 A3002 RMK A01 T01810159  RH  087%=      5-min Rain = 0
KLA1 241009Z 15006KT 18/16 A3002 RMK A01 T01810159  RH  087%=      5-min Rain = 0
KLA1 241010Z 15008KT 18/16 A3003 RMK A01 T01810159  RH  087%=      5-min Rain = 0
KLA1 241011Z 16007KT 18/16 A3003 RMK A01 T01810159  RH  087%=      5-min Rain = 0
KLA1 241012Z 16008KT 18/16 A3003 RMK A01 T01810158  RH  087%=      5-min Rain = 0
KLA1 241013Z 15009KT 18/16 A3003 RMK A01 T01810159  RH  087%=      5-min Rain = 0
KLA1 241014Z 16009KT 18/16 A3003 RMK A01 T01820159  RH  087%=      5-min Rain = 0
KLA1 241015Z 17006KT 18/16 A3003 RMK A01 T01820159  RH  087%=      5-min Rain = 0
KLA1 241016Z 17007KT 18/16 A3003 RMK A01 T01810159  RH  087%=      5-min Rain = 0
KLA1 241017Z 16005KT 18/16 A3003 RMK A01 T01820159  RH  087%=      5-min Rain = 0
KLA1 241018Z 16005KT 18/16 A3003 RMK A01 T01810159  RH  087%=      5-min Rain = 0
KLA1 241019Z 15005KT 18/16 A3003 RMK A01 T01820159  RH  087%=      5-min Rain = 0
KLA1 241020Z 16005KT 18/16 A3003 RMK A01 T01820160  RH  087%=      5-min Rain = 0
KLA1 241021Z 16007KT 18/16 A3003 RMK A01 T01820160  RH  087%=      5-min Rain = 0
KLA1 241022Z 15007KT 18/16 A3003 RMK A01 T01810160  RH  087%=      5-min Rain = 0
KLA1 241023Z 15007KT 18/16 A3003 RMK A01 T01810160  RH  087%=      5-min Rain = 0
KLA1 241024Z 15006KT 18/16 A3003 RMK A01 T01810159  RH  087%=      5-min Rain = 0
KLA1 241025Z 17005KT 18/16 A3003 RMK A01 T01810160  RH  087%=      5-min Rain = 0
KLA1 241026Z 15004KT 18/16 A3003 RMK A01 T01810159  RH  087%=      5-min Rain = 0
KLA1 241027Z 15003KT 18/16 A3003 RMK A01 T01810159  RH  087%=      5-min Rain = 0
KLA1 241028Z 15003KT 18/16 A3003 RMK A01 T01810160  RH  087%=      5-min Rain = 0
KLA1 241029Z 15002KT 18/16 A3003 RMK A01 T01810160  RH  087%=      5-min Rain = 0
KLA1 241030Z 17005KT 18/16 A3003 RMK A01 T01810160  RH  087%=      5-min Rain = 0
KLA1 241031Z 15004KT 18/16 A3003 RMK A01 T01810160  RH  087%=      5-min Rain = 0
KLA1 241032Z 14005KT 18/16 A3003 RMK A01 T01810160  RH  087%=      5-min Rain = 0
KLA1 241033Z 16007KT 18/16 A3003 RMK A01 T01810160  RH  087%=      5-min Rain = 0
KLA1 241034Z 16007KT 18/16 A3003 RMK A01 T01810159  RH  087%=      5-min Rain = 0
KLA1 241035Z 15007KT 18/16 A3003 RMK A01 T01810159  RH  087%=      5-min Rain = 0
KLA1 241036Z 16006KT 18/16 A3003 RMK A01 T01810159  RH  087%=      5-min Rain = 0
KLA1 241037Z 15007KT 18/16 A3003 RMK A01 T01810159  RH  087%=      5-min Rain = 0
KLA1 241038Z 17008KT 18/16 A3003 RMK A01 T01810159  RH  087%=      5-min Rain = 0
KLA1 241039Z 17008KT 18/16 A3003 RMK A01 T01820159  RH  086%=      5-min Rain = 0
KLA1 241040Z 17007KT 18/16 A3003 RMK A01 T01820158  RH  086%=      5-min Rain = 0
KLA1 241041Z 17005KT 18/16 A3003 RMK A01 T01820158  RH  086%=      5-min Rain = 0
KLA1 241042Z 16007KT 18/16 A3003 RMK A01 T01810158  RH  086%=      5-min Rain = 0
KLA1 241043Z 16009KT 18/16 A3003 RMK A01 T01820158  RH  086%=      5-min Rain = 0
KLA1 241044Z 16008KT 18/16 A3003 RMK A01 T01810158  RH  086%=      5-min Rain = 0
KLA1 241045Z 17006KT 18/16 A3003 RMK A01 T01820158  RH  086%=      5-min Rain = 0
KLA1 241046Z 16008KT 18/16 A3003 RMK A01 T01820158  RH  086%=      5-min Rain = 0
KLA1 241047Z 16008KT 18/16 A3003 RMK A01 T01820158  RH  086%=      5-min Rain = 0
KLA1 241048Z 16008KT 18/16 A3003 RMK A01 T01820158  RH  086%=      5-min Rain = 0
KLA1 241049Z 17007KT 18/16 A3003 RMK A01 T01810158  RH  086%=      5-min Rain = 0
KLA1 241050Z 17008KT 18/16 A3003 RMK A01 T01810158  RH  086%=      5-min Rain = 0
KLA1 241051Z 16007KT 18/16 A3003 RMK A01 T01820158  RH  086%=      5-min Rain = 0
KLA1 241052Z 16007KT 18/16 A3003 RMK A01 T01810158  RH  086%=      5-min Rain = 0
KLA1 241053Z 17006KT 18/16 A3003 RMK A01 T01820158  RH  086%=      5-min Rain = 0
KLA1 241054Z 17006KT 18/16 A3003 RMK A01 T01810158  RH  086%=      5-min Rain = 0
KLA1 241055Z 17007KT 18/16 A3003 RMK A01 T01820158  RH  086%=      5-min Rain = 0
KLA1 241056Z 16007KT 18/16 A3003 RMK A01 T01820158  RH  086%=      5-min Rain = 0
KLA1 241057Z 16008KT 18/16 A3003 RMK A01 T01820159  RH  086%=      5-min Rain = 0
KLA1 241058Z 17006KT 18/16 A3003 RMK A01 T01820159  RH  086%=      5-min Rain = 0
KLA1 241059Z 17005KT 18/16 A3003 RMK A01 T01810158  RH  086%=      5-min Rain = 0
KLA1 241100Z 16005KT 18/16 A3003 RMK A01 T01810159  RH  086%=      5-min Rain = 0
KLA1 241101Z 16007KT 18/16 A3003 RMK A01 T01820159  RH  087%=      5-min Rain = 0
KLA1 241102Z 16006KT 18/16 A3003 RMK A01 T01820159  RH  087%=      5-min Rain = 0
KLA1 241103Z 16004KT 18/16 A3003 RMK A01 T01820159  RH  087%=      5-min Rain = 0
KLA1 241104Z 16005KT 18/16 A3003 RMK A01 T01820159  RH  087%=      5-min Rain = 0
KLA1 241105Z 15005KT 18/16 A3003 RMK A01 T01810159  RH  087%=      5-min Rain = 0
KLA1 241106Z 16005KT 18/16 A3003 RMK A01 T01810160  RH  087%=      5-min Rain = 0
KLA1 241107Z 15005KT 18/16 A3003 RMK A01 T01810160  RH  087%=      5-min Rain = 0
KLA1 241108Z 15005KT 18/16 A3003 RMK A01 T01810160  RH  087%=      5-min Rain = 0
KLA1 241109Z 15006KT 18/16 A3003 RMK A01 T01800159  RH  087%=      5-min Rain = 0
KLA1 241110Z 17006KT 18/16 A3003 RMK A01 T01810160  RH  087%=      5-min Rain = 0
KLA1 241111Z 17006KT 18/16 A3003 RMK A01 T01810159  RH  087%=      5-min Rain = 0
KLA1 241112Z 15006KT 18/16 A3003 RMK A01 T01810159  RH  087%=      5-min Rain = 0
KLA1 241113Z 15005KT 18/16 A3003 RMK A01 T01810159  RH  087%=      5-min Rain = 0
KLA1 241114Z 15006KT 18/16 A3003 RMK A01 T01810159  RH  087%=      5-min Rain = 0
KLA1 241115Z 15007KT 18/16 A3003 RMK A01 T01810158  RH  087%=      5-min Rain = 0
KLA1 241116Z 16008KT 18/16 A3003 RMK A01 T01810158  RH  086%=      5-min Rain = 0
KLA1 241117Z 16007KT 18/16 A3003 RMK A01 T01810157  RH  086%=      5-min Rain = 0
KLA1 241118Z 15008KT 18/16 A3004 RMK A01 T01800157  RH  086%=      5-min Rain = 0
KLA1 241119Z 16008KT 18/16 A3004 RMK A01 T01810157  RH  086%=      5-min Rain = 0
KLA1 241120Z 16008KT 18/16 A3004 RMK A01 T01810157  RH  086%=      5-min Rain = 0
KLA1 241121Z 16009KT 18/16 A3004 RMK A01 T01810157  RH  086%=      5-min Rain = 0
KLA1 241122Z 16009KT 18/16 A3004 RMK A01 T01810156  RH  086%=      5-min Rain = 0
KLA1 241123Z 16008KT 18/16 A3004 RMK A01 T01810156  RH  085%=      5-min Rain = 0
KLA1 241124Z 16008KT 18/16 A3004 RMK A01 T01810156  RH  085%=      5-min Rain = 0
KLA1 241125Z 17008KT 18/16 A3004 RMK A01 T01810155  RH  085%=      5-min Rain = 0
KLA1 241126Z 17007KT 18/16 A3004 RMK A01 T01810156  RH  085%=      5-min Rain = 0
KLA1 241127Z 16006KT 18/16 A3004 RMK A01 T01810156  RH  085%=      5-min Rain = 0
KLA1 241128Z 16006KT 18/16 A3004 RMK A01 T01810156  RH  085%=      5-min Rain = 0
KLA1 241129Z 16006KT 18/16 A3004 RMK A01 T01810156  RH  085%=      5-min Rain = 0
KLA1 241130Z 16007KT 18/16 A3004 RMK A01 T01810156  RH  085%=      5-min Rain = 0
KLA1 241131Z 16007KT 18/16 A3004 RMK A01 T01800155  RH  085%=      5-min Rain = 0
KLA1 241132Z 16006KT 18/16 A3004 RMK A01 T01800155  RH  085%=      5-min Rain = 0
KLA1 241133Z 16006KT 18/16 A3004 RMK A01 T01800155  RH  085%=      5-min Rain = 0
KLA1 241134Z 15006KT 18/16 A3004 RMK A01 T01800155  RH  085%=      5-min Rain = 0
KLA1 241135Z 16007KT 18/16 A3004 RMK A01 T01800155  RH  085%=      5-min Rain = 0
KLA1 241136Z 16007KT 18/16 A3004 RMK A01 T01800155  RH  085%=      5-min Rain = 0
KLA1 241137Z 16006KT 18/16 A3004 RMK A01 T01800155  RH  085%=      5-min Rain = 0
KLA1 241138Z 16005KT 18/16 A3004 RMK A01 T01800155  RH  085%=      5-min Rain = 0
KLA1 241139Z 16006KT 18/16 A3004 RMK A01 T01800156  RH  086%=      5-min Rain = 0
KLA1 241140Z 16006KT 18/16 A3004 RMK A01 T01800156  RH  086%=      5-min Rain = 0
KLA1 241141Z 17005KT 18/16 A3004 RMK A01 T01800156  RH  086%=      5-min Rain = 0
KLA1 241142Z 16004KT 18/16 A3004 RMK A01 T01800156  RH  086%=      5-min Rain = 0
KLA1 241143Z 17004KT 18/16 A3004 RMK A01 T01800156  RH  086%=      5-min Rain = 0
KLA1 241144Z 17005KT 18/16 A3004 RMK A01 T01800156  RH  086%=      5-min Rain = 0
KLA1 241145Z 18007KT 18/16 A3004 RMK A01 T01800155  RH  086%=      5-min Rain = 0
KLA1 241146Z 19005KT 18/16 A3004 RMK A01 T01800155  RH  085%=      5-min Rain = 0
KLA1 241147Z 18004KT 18/16 A3004 RMK A01 T01800155  RH  085%=      5-min Rain = 0
KLA1 241148Z 16004KT 18/16 A3004 RMK A01 T01800155  RH  086%=      5-min Rain = 0
KLA1 241149Z 16004KT 18/16 A3004 RMK A01 T01800156  RH  086%=      5-min Rain = 0
KLA1 241150Z 16004KT 18/16 A3004 RMK A01 T01800156  RH  086%=      5-min Rain = 0
KLA1 241151Z 17005KT 18/16 A3004 RMK A01 T01800156  RH  086%=      5-min Rain = 0
KLA1 241152Z 16005KT 18/16 A3004 RMK A01 T01790156  RH  086%=      5-min Rain = 0
KLA1 241153Z 17005KT 18/16 A3004 RMK A01 T01790156  RH  086%=      5-min Rain = 0
KLA1 241154Z 16004KT 18/16 A3004 RMK A01 T01790157  RH  087%=      5-min Rain = 0
KLA1 241155Z 16004KT 18/16 A3004 RMK A01 T01790157  RH  087%=      5-min Rain = 0
KLA1 241156Z 16005KT 18/16 A3004 RMK A01 T01790157  RH  087%=      5-min Rain = 0
KLA1 241157Z 16005KT 18/16 A3004 RMK A01 T01790157  RH  087%=      5-min Rain = 0
KLA1 241158Z 16006KT 18/16 A3004 RMK A01 T01790157  RH  087%=      5-min Rain = 0
KLA1 241159Z 17004KT 18/16 A3004 RMK A01 T01790157  RH  087%=      5-min Rain = 0
KLA1 241200Z 16005KT 18/16 A3004 RMK A01 T01790157  RH  087%=      5-min Rain = 0
KLA1 241201Z 16005KT 18/16 A3004 RMK A01 T01790157  RH  087%=      5-min Rain = 0
KLA1 241202Z 17005KT 18/16 A3004 RMK A01 T01790157  RH  087%=      5-min Rain = 0
KLA1 241203Z 16005KT 18/16 A3004 RMK A01 T01790157  RH  087%=      5-min Rain = 0
KLA1 241204Z 15004KT 18/16 A3004 RMK A01 T01790157  RH  087%=      5-min Rain = 0
KLA1 241205Z 15005KT 18/16 A3004 RMK A01 T01790157  RH  087%=      5-min Rain = 0
KLA1 241206Z 16005KT 18/16 A3004 RMK A01 T01790157  RH  087%=      5-min Rain = 0
KLA1 241207Z 16004KT 18/16 A3004 RMK A01 T01790157  RH  087%=      5-min Rain = 0
KLA1 241208Z 17005KT 18/16 A3005 RMK A01 T01780157  RH  087%=      5-min Rain = 0
KLA1 241209Z 16005KT 18/16 A3005 RMK A01 T01780157  RH  087%=      5-min Rain = 0
KLA1 241210Z 16004KT 18/16 A3005 RMK A01 T01780158  RH  088%=      5-min Rain = 0
KLA1 241211Z 17004KT 18/16 A3005 RMK A01 T01780158  RH  088%=      5-min Rain = 0
KLA1 241212Z 17005KT 18/16 A3005 RMK A01 T01780158  RH  088%=      5-min Rain = 0
KLA1 241213Z 16004KT 18/16 A3005 RMK A01 T01780158  RH  088%=      5-min Rain = 0
KLA1 241214Z 16004KT 18/16 A3005 RMK A01 T01780158  RH  088%=      5-min Rain = 0
KLA1 241215Z 17005KT 18/16 A3005 RMK A01 T01780158  RH  088%=      5-min Rain = 0
KLA1 241216Z 16005KT 18/16 A3005 RMK A01 T01780158  RH  088%=      5-min Rain = 0
KLA1 241217Z 16005KT 18/16 A3005 RMK A01 T01770158  RH  088%=      5-min Rain = 0
KLA1 241218Z 16005KT 18/16 A3005 RMK A01 T01780158  RH  088%=      5-min Rain = 0
KLA1 241219Z 16006KT 18/16 A3005 RMK A01 T01770158  RH  088%=      5-min Rain = 0
KLA1 241220Z 16006KT 18/16 A3005 RMK A01 T01770157  RH  088%=      5-min Rain = 0
KLA1 241221Z 16005KT 18/16 A3005 RMK A01 T01770157  RH  088%=      5-min Rain = 0
KLA1 241222Z 17005KT 18/16 A3005 RMK A01 T01780157  RH  088%=      5-min Rain = 0
KLA1 241223Z 16005KT 18/16 A3005 RMK A01 T01770157  RH  088%=      5-min Rain = 0
KLA1 241224Z 17005KT 18/16 A3005 RMK A01 T01780157  RH  088%=      5-min Rain = 0
KLA1 241225Z 17005KT 18/16 A3005 RMK A01 T01770157  RH  088%=      5-min Rain = 0
KLA1 241226Z 17005KT 18/16 A3005 RMK A01 T01770157  RH  088%=      5-min Rain = 0
KLA1 241227Z 17006KT 18/16 A3005 RMK A01 T01770156  RH  088%=      5-min Rain = 0
KLA1 241228Z 18007KT 18/16 A3005 RMK A01 T01770156  RH  087%=      5-min Rain = 0
KLA1 241229Z 18007KT 18/15 A3005 RMK A01 T01770154  RH  087%=      5-min Rain = 0
KLA1 241230Z 17007KT 18/15 A3005 RMK A01 T01780154  RH  086%=      5-min Rain = 0
KLA1 241231Z 18006KT 18/15 A3005 RMK A01 T01780154  RH  086%=      5-min Rain = 0
KLA1 241232Z 19004KT 18/15 A3005 RMK A01 T01780153  RH  086%=      5-min Rain = 0
KLA1 241233Z 17005KT 18/15 A3005 RMK A01 T01780154  RH  086%=      5-min Rain = 0
KLA1 241234Z 16004KT 18/16 A3005 RMK A01 T01780155  RH  086%=      5-min Rain = 0
KLA1 241235Z 17003KT 18/16 A3005 RMK A01 T01780155  RH  086%=      5-min Rain = 0
KLA1 241236Z 16004KT 18/16 A3005 RMK A01 T01780155  RH  087%=      5-min Rain = 0
KLA1 241237Z 16005KT 18/16 A3005 RMK A01 T01780155  RH  087%=      5-min Rain = 0
KLA1 241238Z 15006KT 18/16 A3005 RMK A01 T01780155  RH  087%=      5-min Rain = 0
KLA1 241239Z 15008KT 18/15 A3005 RMK A01 T01780154  RH  086%=      5-min Rain = 0
KLA1 241240Z 16008KT 18/15 A3005 RMK A01 T01780153  RH  086%=      5-min Rain = 0
KLA1 241241Z 16007KT 18/15 A3006 RMK A01 T01770153  RH  085%=      5-min Rain = 0
KLA1 241242Z 17006KT 18/15 A3006 RMK A01 T01770152  RH  085%=      5-min Rain = 0
KLA1 241243Z 16006KT 18/15 A3006 RMK A01 T01770152  RH  085%=      5-min Rain = 0
KLA1 241244Z 17007KT 18/15 A3006 RMK A01 T01770152  RH  085%=      5-min Rain = 0
KLA1 241245Z 18008KT 18/15 A3006 RMK A01 T01780152  RH  085%=      5-min Rain = 0
KLA1 241246Z 19008KT 18/15 A3006 RMK A01 T01780152  RH  085%=      5-min Rain = 0
KLA1 241247Z 18007KT 18/15 A3006 RMK A01 T01780152  RH  085%=      5-min Rain = 0
KLA1 241248Z 18006KT 18/15 A3006 RMK A01 T01780152  RH  085%=      5-min Rain = 0
KLA1 241249Z 18008KT 18/15 A3006 RMK A01 T01780152  RH  085%=      5-min Rain = 0
KLA1 241250Z 18008KT 18/15 A3006 RMK A01 T01780153  RH  085%=      5-min Rain = 0
KLA1 241251Z 17006KT 18/15 A3006 RMK A01 T01780153  RH  085%=      5-min Rain = 0
KLA1 241252Z 17005KT 18/15 A3006 RMK A01 T01780153  RH  086%=      5-min Rain = 0
KLA1 241253Z 15005KT 18/15 A3006 RMK A01 T01780153  RH  086%=      5-min Rain = 0
KLA1 241254Z 15006KT 18/15 A3006 RMK A01 T01780154  RH  086%=      5-min Rain = 0
KLA1 241255Z 15005KT 18/15 A3006 RMK A01 T01780154  RH  086%=      5-min Rain = 0
KLA1 241256Z 16004KT 18/16 A3006 RMK A01 T01780155  RH  086%=      5-min Rain = 0
KLA1 241257Z 16005KT 18/16 A3006 RMK A01 T01780155  RH  086%=      5-min Rain = 0
KLA1 241258Z 16005KT 18/16 A3006 RMK A01 T01770155  RH  087%=      5-min Rain = 0
KLA1 241259Z 16005KT 18/15 A3006 RMK A01 T01770154  RH  087%=      5-min Rain = 0
KLA1 241300Z 16004KT 18/16 A3006 RMK A01 T01780155  RH  087%=      5-min Rain = 0
KLA1 241301Z 16005KT 18/16 A3006 RMK A01 T01770155  RH  087%=      5-min Rain = 0
KLA1 241302Z 17004KT 18/16 A3006 RMK A01 T01770155  RH  087%=      5-min Rain = 0
KLA1 241303Z 17003KT 18/16 A3006 RMK A01 T01780155  RH  087%=      5-min Rain = 0
KLA1 241304Z 16005KT 18/16 A3006 RMK A01 T01770155  RH  087%=      5-min Rain = 0
KLA1 241305Z 17004KT 18/15 A3006 RMK A01 T01770154  RH  087%=      5-min Rain = 0
KLA1 241306Z 17004KT 18/16 A3006 RMK A01 T01770155  RH  087%=      5-min Rain = 0
KLA1 241307Z 17005KT 18/16 A3007 RMK A01 T01770155  RH  087%=      5-min Rain = 0
KLA1 241308Z 17004KT 18/16 A3007 RMK A01 T01770155  RH  087%=      5-min Rain = 0
KLA1 241309Z 17004KT 18/16 A3007 RMK A01 T01770155  RH  087%=      5-min Rain = 0
KLA1 241310Z 17005KT 18/15 A3007 RMK A01 T01770154  RH  087%=      5-min Rain = 0
KLA1 241311Z 16005KT 18/15 A3007 RMK A01 T01770154  RH  086%=      5-min Rain = 0
KLA1 241312Z 17005KT 18/15 A3007 RMK A01 T01770154  RH  086%=      5-min Rain = 0
KLA1 241313Z 18005KT 18/15 A3007 RMK A01 T01770154  RH  086%=      5-min Rain = 0
KLA1 241314Z 17006KT 18/15 A3007 RMK A01 T01770154  RH  086%=      5-min Rain = 0
KLA1 241315Z 18008KT 18/15 A3007 RMK A01 T01780154  RH  086%=      5-min Rain = 0
KLA1 241316Z 17008KT 18/15 A3007 RMK A01 T01770153  RH  086%=      5-min Rain = 0
KLA1 241317Z 18006KT 18/15 A3007 RMK A01 T01770152  RH  085%=      5-min Rain = 0
KLA1 241318Z 18005KT 18/15 A3007 RMK A01 T01770152  RH  085%=      5-min Rain = 0
KLA1 241319Z 18006KT 18/15 A3007 RMK A01 T01780152  RH  085%=      5-min Rain = 0
KLA1 241320Z 16007KT 18/15 A3007 RMK A01 T01780153  RH  085%=      5-min Rain = 0
KLA1 241321Z 16005KT 18/15 A3007 RMK A01 T01780152  RH  085%=      5-min Rain = 0
KLA1 241322Z 15007KT 18/15 A3007 RMK A01 T01780153  RH  085%=      5-min Rain = 0
KLA1 241323Z 16008KT 18/15 A3007 RMK A01 T01780153  RH  085%=      5-min Rain = 0
KLA1 241324Z 16008KT 18/15 A3007 RMK A01 T01780153  RH  086%=      5-min Rain = 0
KLA1 241325Z 16007KT 18/15 A3007 RMK A01 T01770153  RH  086%=      5-min Rain = 0
KLA1 241326Z 16010KT 18/15 A3007 RMK A01 T01770153  RH  086%=      5-min Rain = 0
KLA1 241327Z 16009KT 18/15 A3007 RMK A01 T01770152  RH  085%=      5-min Rain = 0
KLA1 241328Z 17008KT 18/15 A3007 RMK A01 T01770152  RH  085%=      5-min Rain = 0
KLA1 241329Z 18006KT 18/15 A3007 RMK A01 T01770152  RH  085%=      5-min Rain = 0
KLA1 241330Z 19007KT 18/15 A3007 RMK A01 T01770152  RH  085%=      5-min Rain = 0
KLA1 241331Z 19007KT 18/15 A3007 RMK A01 T01770152  RH  085%=      5-min Rain = 0
KLA1 241332Z 19007KT 18/15 A3007 RMK A01 T01770152  RH  085%=      5-min Rain = 0
KLA1 241333Z 18007KT 18/15 A3007 RMK A01 T01780152  RH  085%=      5-min Rain = 0
KLA1 241334Z 18006KT 18/15 A3007 RMK A01 T01780153  RH  085%=      5-min Rain = 0
KLA1 241335Z 18007KT 18/15 A3007 RMK A01 T01780153  RH  085%=      5-min Rain = 0
KLA1 241336Z 18006KT 18/15 A3007 RMK A01 T01780152  RH  085%=      5-min Rain = 0
KLA1 241337Z 18006KT 18/15 A3007 RMK A01 T01780152  RH  085%=      5-min Rain = 0
KLA1 241338Z 18005KT 18/15 A3007 RMK A01 T01780152  RH  085%=      5-min Rain = 0
KLA1 241339Z 17004KT 18/15 A3007 RMK A01 T01780153  RH  085%=      5-min Rain = 0
KLA1 241340Z 17005KT 18/15 A3008 RMK A01 T01780153  RH  085%=      5-min Rain = 0
KLA1 241341Z 17006KT 18/15 A3008 RMK A01 T01780153  RH  085%=      5-min Rain = 0
KLA1 241342Z 17005KT 18/15 A3008 RMK A01 T01790154  RH  085%=      5-min Rain = 0
KLA1 241343Z 18005KT 18/15 A3008 RMK A01 T01780153  RH  085%=      5-min Rain = 0
KLA1 241344Z 16004KT 18/15 A3008 RMK A01 T01780154  RH  085%=      5-min Rain = 0
KLA1 241345Z 16006KT 18/15 A3008 RMK A01 T01780154  RH  086%=      5-min Rain = 0
KLA1 241346Z 16005KT 18/15 A3008 RMK A01 T01780154  RH  085%=      5-min Rain = 0
KLA1 241347Z 16005KT 18/15 A3008 RMK A01 T01790154  RH  086%=      5-min Rain = 0
KLA1 241348Z 15007KT 18/15 A3008 RMK A01 T01790154  RH  086%=      5-min Rain = 0
KLA1 241349Z 16007KT 18/15 A3008 RMK A01 T01790154  RH  085%=      5-min Rain = 0
KLA1 241350Z 17007KT 18/15 A3008 RMK A01 T01790154  RH  085%=      5-min Rain = 0
KLA1 241351Z 17007KT 18/15 A3008 RMK A01 T01790152  RH  084%=      5-min Rain = 0
KLA1 241352Z 18008KT 18/15 A3008 RMK A01 T01790152  RH  084%=      5-min Rain = 0
KLA1 241353Z 19009KT 18/15 A3008 RMK A01 T01790152  RH  084%=      5-min Rain = 0
KLA1 241354Z 19007KT 18/15 A3008 RMK A01 T01790151  RH  084%=      5-min Rain = 0
KLA1 241355Z 19007KT 18/15 A3008 RMK A01 T01790151  RH  084%=      5-min Rain = 0
KLA1 241356Z 20006KT 18/15 A3008 RMK A01 T01780151  RH  084%=      5-min Rain = 0
KLA1 241357Z 20006KT 18/15 A3008 RMK A01 T01780151  RH  084%=      5-min Rain = 0
KLA1 241358Z 20007KT 18/15 A3008 RMK A01 T01790151  RH  084%=      5-min Rain = 0
KLA1 241359Z 18007KT 18/15 A3008 RMK A01 T01790152  RH  084%=      5-min Rain = 0
KLA1 241400Z 18007KT 18/15 A3008 RMK A01 T01790152  RH  084%=      5-min Rain = 0
KLA1 241401Z 18006KT 18/15 A3008 RMK A01 T01790153  RH  084%=      5-min Rain = 0
KLA1 241402Z 18005KT 18/15 A3008 RMK A01 T01790153  RH  085%=      5-min Rain = 0
KLA1 241403Z 18006KT 18/15 A3008 RMK A01 T01790154  RH  085%=      5-min Rain = 0
KLA1 241404Z 18006KT 18/15 A3008 RMK A01 T01790154  RH  085%=      5-min Rain = 0
KLA1 241405Z 18006KT 18/15 A3008 RMK A01 T01800154  RH  085%=      5-min Rain = 0
KLA1 241406Z 18007KT 18/15 A3009 RMK A01 T01800153  RH  084%=      5-min Rain = 0
KLA1 241407Z 17006KT 18/15 A3009 RMK A01 T01800153  RH  084%=      5-min Rain = 0
KLA1 241408Z 16008KT 18/15 A3009 RMK A01 T01800153  RH  084%=      5-min Rain = 0
KLA1 241409Z 17008KT 18/15 A3009 RMK A01 T01800153  RH  084%=      5-min Rain = 0
KLA1 241410Z 18007KT 18/15 A3009 RMK A01 T01800153  RH  084%=      5-min Rain = 0
KLA1 241411Z 18008KT 18/15 A3009 RMK A01 T01790152  RH  084%=      5-min Rain = 0
KLA1 241412Z 18006KT 18/15 A3009 RMK A01 T01790152  RH  084%=      5-min Rain = 0
KLA1 241413Z 18007KT 18/15 A3009 RMK A01 T01790152  RH  084%=      5-min Rain = 0
KLA1 241414Z 18007KT 18/15 A3009 RMK A01 T01790152  RH  084%=      5-min Rain = 0
KLA1 241415Z 18007KT 18/15 A3009 RMK A01 T01790152  RH  084%=      5-min Rain = 0
KLA1 241416Z 18006KT 18/15 A3009 RMK A01 T01790152  RH  084%=      5-min Rain = 0
KLA1 241417Z 17006KT 18/15 A3009 RMK A01 T01790153  RH  084%=      5-min Rain = 0
KLA1 241418Z 17004KT 18/15 A3009 RMK A01 T01790153  RH  084%=      5-min Rain = 0
KLA1 241419Z 17006KT 18/15 A3009 RMK A01 T01790153  RH  085%=      5-min Rain = 0
KLA1 241420Z 17009KT 18/15 A3009 RMK A01 T01800153  RH  084%=      5-min Rain = 0
KLA1 241421Z 17008KT 18/15 A3009 RMK A01 T01800153  RH  084%=      5-min Rain = 0
KLA1 241422Z 17006KT 18/15 A3009 RMK A01 T01800153  RH  084%=      5-min Rain = 0
KLA1 241423Z 17005KT 18/15 A3009 RMK A01 T01800153  RH  084%=      5-min Rain = 0
KLA1 241424Z 17006KT 18/15 A3009 RMK A01 T01800153  RH  085%=      5-min Rain = 0
KLA1 241425Z 17006KT 18/15 A3009 RMK A01 T01800153  RH  084%=      5-min Rain = 0
KLA1 241426Z 18006KT 18/15 A3009 RMK A01 T01800154  RH  085%=      5-min Rain = 0
KLA1 241427Z 18007KT 18/15 A3009 RMK A01 T01800153  RH  084%=      5-min Rain = 0
KLA1 241428Z 18008KT 18/15 A301 RMK A01 T01800153  RH  084%=      5-min Rain = 0
KLA1 241429Z 18009KT 18/15 A301 RMK A01 T01810153  RH  084%=      5-min Rain = 0
KLA1 241430Z 18009KT 18/15 A301 RMK A01 T01810152  RH  083%=      5-min Rain = 0
KLA1 241431Z 18008KT 18/15 A301 RMK A01 T01810152  RH  083%=      5-min Rain = 0
KLA1 241432Z 19006KT 18/15 A301 RMK A01 T01810152  RH  083%=      5-min Rain = 0
KLA1 241433Z 19005KT 18/15 A301 RMK A01 T01820152  RH  083%=      5-min Rain = 0
KLA1 241434Z 19006KT 18/15 A301 RMK A01 T01820152  RH  083%=      5-min Rain = 0
KLA1 241435Z 19007KT 18/15 A301 RMK A01 T01820152  RH  082%=      5-min Rain = 0
KLA1 241436Z 19006KT 18/15 A301 RMK A01 T01820152  RH  082%=      5-min Rain = 0
KLA1 241437Z 18007KT 18/15 A301 RMK A01 T01830152  RH  082%=      5-min Rain = 0
KLA1 241438Z 19007KT 18/15 A301 RMK A01 T01830152  RH  082%=      5-min Rain = 0
KLA1 241439Z 19006KT 18/15 A301 RMK A01 T01820152  RH  082%=      5-min Rain = 0
KLA1 241440Z 18007KT 18/15 A301 RMK A01 T01830152  RH  082%=      5-min Rain = 0
KLA1 241441Z 18007KT 18/15 A301 RMK A01 T01830152  RH  082%=      5-min Rain = 0
KLA1 241442Z 17007KT 18/15 A301 RMK A01 T01830153  RH  083%=      5-min Rain = 0
KLA1 241443Z 16006KT 18/15 A301 RMK A01 T01830153  RH  083%=      5-min Rain = 0
KLA1 241444Z 16007KT 18/15 A301 RMK A01 T01840154  RH  083%=      5-min Rain = 0
KLA1 241445Z 16007KT 18/15 A301 RMK A01 T01840153  RH  082%=      5-min Rain = 0
KLA1 241446Z 18006KT 18/15 A301 RMK A01 T01840152  RH  082%=      5-min Rain = 0
KLA1 241447Z 18004KT 18/15 A301 RMK A01 T01830152  RH  082%=      5-min Rain = 0
KLA1 241448Z 19005KT 18/15 A301 RMK A01 T01830153  RH  082%=      5-min Rain = 0
KLA1 241449Z 19003KT 18/15 A301 RMK A01 T01830151  RH  082%=      5-min Rain = 0
KLA1 241450Z 18004KT 18/15 A301 RMK A01 T01830152  RH  082%=      5-min Rain = 0
KLA1 241451Z 19005KT 18/15 A301 RMK A01 T01840153  RH  082%=      5-min Rain = 0
KLA1 241452Z 19004KT 19/15 A301 RMK A01 T01850153  RH  081%=      5-min Rain = 0
KLA1 241453Z 19005KT 19/15 A301 RMK A01 T01850152  RH  081%=      5-min Rain = 0
KLA1 241454Z 18006KT 19/15 A301 RMK A01 T01860152  RH  081%=      5-min Rain = 0
KLA1 241455Z 18006KT 19/15 A301 RMK A01 T01860153  RH  081%=      5-min Rain = 0
KLA1 241456Z 19008KT 19/15 A301 RMK A01 T01860152  RH  080%=      5-min Rain = 0
KLA1 241457Z 20008KT 19/15 A301 RMK A01 T01860151  RH  080%=      5-min Rain = 0
KLA1 241458Z 20007KT 19/15 A301 RMK A01 T01860151  RH  080%=      5-min Rain = 0
KLA1 241459Z 17006KT 19/15 A301 RMK A01 T01860152  RH  080%=      5-min Rain = 0
KLA1 241500Z 17005KT 19/15 A301 RMK A01 T01870153  RH  081%=      5-min Rain = 0
KLA1 241501Z 16006KT 19/15 A301 RMK A01 T01880153  RH  080%=      5-min Rain = 0
KLA1 241502Z 16007KT 19/15 A3011 RMK A01 T01880153  RH  080%=      5-min Rain = 0
KLA1 241503Z 15007KT 19/15 A3011 RMK A01 T01890152  RH  079%=      5-min Rain = 0
KLA1 241504Z 16007KT 19/15 A3011 RMK A01 T01880152  RH  079%=      5-min Rain = 0
KLA1 241505Z 15006KT 19/15 A3011 RMK A01 T01880152  RH  079%=      5-min Rain = 0
KLA1 241506Z 15008KT 19/15 A3011 RMK A01 T01890152  RH  079%=      5-min Rain = 0
KLA1 241507Z 15008KT 19/15 A3011 RMK A01 T01890152  RH  079%=      5-min Rain = 0
KLA1 241508Z 13007KT 19/15 A3011 RMK A01 T01890153  RH  079%=      5-min Rain = 0
KLA1 241509Z 14007KT 19/15 A3011 RMK A01 T01890152  RH  079%=      5-min Rain = 0
KLA1 241510Z 15008KT 19/15 A3011 RMK A01 T01890152  RH  079%=      5-min Rain = 0
KLA1 241511Z 16007KT 19/15 A3011 RMK A01 T01890152  RH  079%=      5-min Rain = 0
KLA1 241512Z 15007KT 19/15 A3011 RMK A01 T01890152  RH  079%=      5-min Rain = 0
KLA1 241513Z 16007KT 19/15 A3011 RMK A01 T01890152  RH  079%=      5-min Rain = 0
KLA1 241514Z 18008KT 19/15 A3011 RMK A01 T01880152  RH  079%=      5-min Rain = 0
KLA1 241515Z 19008KT 19/15 A3011 RMK A01 T01880151  RH  079%=      5-min Rain = 0
KLA1 241516Z 18010KT 19/15 A3011 RMK A01 T01890150  RH  078%=      5-min Rain = 0
KLA1 241517Z 18007KT 19/15 A3011 RMK A01 T01890150  RH  078%=      5-min Rain = 0
KLA1 241518Z 17004KT 19/15 A3011 RMK A01 T01900149  RH  077%=      5-min Rain = 0
KLA1 241519Z 17005KT 19/15 A3011 RMK A01 T01890150  RH  078%=      5-min Rain = 0
KLA1 241520Z 17006KT 19/15 A3011 RMK A01 T01890150  RH  078%=      5-min Rain = 0
KLA1 241521Z 17006KT 19/15 A3011 RMK A01 T01890150  RH  078%=      5-min Rain = 0
KLA1 241522Z 19006KT 19/15 A3011 RMK A01 T01890150  RH  078%=      5-min Rain = 0
KLA1 241523Z 18006KT 19/15 A3011 RMK A01 T01890149  RH  077%=      5-min Rain = 0
KLA1 241524Z 15006KT 19/15 A3011 RMK A01 T01900152  RH  078%=      5-min Rain = 0
KLA1 241525Z 14007KT 19/15 A3011 RMK A01 T01930152  RH  077%=      5-min Rain = 0
KLA1 241526Z 14007KT 20/15 A3011 RMK A01 T01950150  RH  076%=      5-min Rain = 0
KLA1 241527Z 16010KT 20/15 A3011 RMK A01 T01950151  RH  076%=      5-min Rain = 0
KLA1 241528Z 16010KT 20/15 A3011 RMK A01 T01950151  RH  075%=      5-min Rain = 0
KLA1 241529Z 16009KT 20/15 A3011 RMK A01 T01950150  RH  075%=      5-min Rain = 0
KLA1 241530Z 17008KT 19/15 A3011 RMK A01 T01940151  RH  076%=      5-min Rain = 0
KLA1 241531Z 17008KT 19/15 A3011 RMK A01 T01940151  RH  076%=      5-min Rain = 0
KLA1 241532Z 17006KT 19/15 A3011 RMK A01 T01930150  RH  076%=      5-min Rain = 0
KLA1 241533Z 17005KT 19/15 A3011 RMK A01 T01930151  RH  076%=      5-min Rain = 0
KLA1 241534Z 19006KT 19/15 A3011 RMK A01 T01930150  RH  076%=      5-min Rain = 0
KLA1 241535Z 17006KT 19/15 A3011 RMK A01 T01930148  RH  075%=      5-min Rain = 0
KLA1 241536Z 18005G10KT 19/15 A3011 RMK A01 T01920149  RH  076%=      5-min Rain = 0
KLA1 241537Z 19007KT 19/15 A3011 RMK A01 T01920148  RH  075%=      5-min Rain = 0
KLA1 241538Z 20006KT 19/15 A3011 RMK A01 T01940149  RH  075%=      5-min Rain = 0
KLA1 241539Z 20008KT 20/15 A3011 RMK A01 T01950148  RH  074%=      5-min Rain = 0
KLA1 241540Z 20007KT 20/15 A3011 RMK A01 T01950148  RH  074%=      5-min Rain = 0
KLA1 241541Z 20005KT 19/15 A3011 RMK A01 T01940147  RH  074%=      5-min Rain = 0
KLA1 241542Z 19007KT 19/15 A3011 RMK A01 T01940148  RH  075%=      5-min Rain = 0
KLA1 241543Z 20007KT 20/15 A3011 RMK A01 T01960151  RH  075%=      5-min Rain = 0
KLA1 241544Z 22007KT 20/15 A3011 RMK A01 T01990149  RH  073%=      5-min Rain = 0
KLA1 241545Z 19007KT 20/15 A3011 RMK A01 T01990149  RH  073%=      5-min Rain = 0
KLA1 241546Z 17008KT 20/15 A3011 RMK A01 T02010153  RH  074%=      5-min Rain = 0
KLA1 241547Z 16008KT 20/15 A3011 RMK A01 T02030151  RH  072%=      5-min Rain = 0
KLA1 241548Z 16009KT 20/15 A3011 RMK A01 T02040153  RH  073%=      5-min Rain = 0
KLA1 241549Z 17006KT 20/15 A3011 RMK A01 T02030150  RH  071%=      5-min Rain = 0
KLA1 241550Z 15005KT 20/15 A3011 RMK A01 T02020151  RH  073%=      5-min Rain = 0
KLA1 241551Z 13008KT 20/15 A3011 RMK A01 T02020152  RH  073%=      5-min Rain = 0
KLA1 241552Z 14008KT 20/15 A3011 RMK A01 T02030154  RH  073%=      5-min Rain = 0
KLA1 241553Z 14008KT 20/15 A3011 RMK A01 T02040150  RH  071%=      5-min Rain = 0
KLA1 241554Z 13008KT 20/15 A3011 RMK A01 T02020149  RH  072%=      5-min Rain = 0
KLA1 241555Z 14007KT 20/15 A3011 RMK A01 T02000150  RH  073%=      5-min Rain = 0
KLA1 241556Z 16009KT 20/15 A3011 RMK A01 T02010151  RH  073%=      5-min Rain = 0
KLA1 241557Z 18008KT 20/15 A3011 RMK A01 T02030152  RH  072%=      5-min Rain = 0
KLA1 241558Z 16006KT 20/15 A3011 RMK A01 T02040151  RH  072%=      5-min Rain = 0
KLA1 241559Z 17005KT 21/16 A3011 RMK A01 T02050155  RH  073%=      5-min Rain = 0
KLA1 241600Z 15006KT 21/15 A3011 RMK A01 T02080154  RH  071%=      5-min Rain = 0
KLA1 241601Z 15004KT 21/15 A3011 RMK A01 T02080153  RH  070%=      5-min Rain = 0
KLA1 241602Z 16007KT 21/15 A3011 RMK A01 T02090153  RH  070%=      5-min Rain = 0
KLA1 241603Z 14007KT 21/15 A3011 RMK A01 T02100153  RH  070%=      5-min Rain = 0
KLA1 241604Z 15009KT 21/16 A3011 RMK A01 T02110156  RH  071%=      5-min Rain = 0
KLA1 241605Z 14011KT 21/15 A3011 RMK A01 T02120154  RH  069%=      5-min Rain = 0
KLA1 241606Z 14009KT 21/15 A3011 RMK A01 T02090152  RH  070%=      5-min Rain = 0
KLA1 241607Z 13009KT 21/15 A3011 RMK A01 T02060151  RH  071%=      5-min Rain = 0
KLA1 241608Z 14009KT 20/15 A3011 RMK A01 T02030152  RH  073%=      5-min Rain = 0
KLA1 241609Z 14007KT 20/15 A3011 RMK A01 T02030153  RH  073%=      5-min Rain = 0
KLA1 241610Z 15006KT 20/16 A3011 RMK A01 T02040155  RH  073%=      5-min Rain = 0
KLA1 241611Z 13007KT 21/16 A3011 RMK A01 T02050155  RH  073%=      5-min Rain = 0
KLA1 241612Z 13010KT 21/16 A3011 RMK A01 T02070155  RH  072%=      5-min Rain = 0
KLA1 241613Z 15009KT 21/15 A3011 RMK A01 T02070154  RH  072%=      5-min Rain = 0
KLA1 241614Z 16009KT 21/15 A3011 RMK A01 T02070154  RH  071%=      5-min Rain = 0
KLA1 241615Z 13009KT 21/16 A3011 RMK A01 T02090156  RH  072%=      5-min Rain = 0
KLA1 241616Z 15011KT 21/16 A3011 RMK A01 T02100155  RH  071%=      5-min Rain = 0
KLA1 241617Z 14011KT 21/15 A3011 RMK A01 T02110154  RH  070%=      5-min Rain = 0
KLA1 241618Z 13009KT 21/15 A3011 RMK A01 T02090154  RH  070%=      5-min Rain = 0
KLA1 241619Z 15008KT 21/16 A3011 RMK A01 T02080155  RH  072%=      5-min Rain = 0
KLA1 241620Z 15009KT 21/16 A3011 RMK A01 T02100156  RH  071%=      5-min Rain = 0
KLA1 241621Z 13009KT 21/16 A3011 RMK A01 T02100155  RH  070%=      5-min Rain = 0
KLA1 241622Z 14008KT 21/15 A3011 RMK A01 T02090152  RH  070%=      5-min Rain = 0
KLA1 241623Z 13010KT 21/15 A3012 RMK A01 T02080153  RH  071%=      5-min Rain = 0
KLA1 241624Z 12008KT 21/16 A3012 RMK A01 T02070155  RH  072%=      5-min Rain = 0
KLA1 241625Z 14009KT 21/16 A3012 RMK A01 T02090155  RH  071%=      5-min Rain = 0
KLA1 241626Z 17009KT 21/16 A3012 RMK A01 T02110156  RH  071%=      5-min Rain = 0
KLA1 241627Z 15009KT 21/15 A3012 RMK A01 T02110154  RH  070%=      5-min Rain = 0
KLA1 241628Z 17009G14KT 21/15 A3011 RMK A01 T02090153  RH  070%=      5-min Rain = 0
KLA1 241629Z 17007KT 21/15 A3012 RMK A01 T02080152  RH  070%=      5-min Rain = 0
KLA1 241630Z 17006G12KT 21/16 A3012 RMK A01 T02090155  RH  071%=      5-min Rain = 0
KLA1 241631Z 17011KT 21/15 A3012 RMK A01 T02100154  RH  070%=      5-min Rain = 0
KLA1 241632Z 17008KT 21/15 A3012 RMK A01 T02090154  RH  070%=      5-min Rain = 0
KLA1 241633Z 16007KT 21/15 A3012 RMK A01 T02090154  RH  071%=      5-min Rain = 0
KLA1 241634Z 15010KT 21/16 A3012 RMK A01 T02110157  RH  071%=      5-min Rain = 0
KLA1 241635Z 14009KT 21/15 A3012 RMK A01 T02120153  RH  069%=      5-min Rain = 0
KLA1 241636Z 13010KT 21/15 A3012 RMK A01 T02120153  RH  069%=      5-min Rain = 0
KLA1 241637Z 13008KT 21/15 A3012 RMK A01 T02100153  RH  070%=      5-min Rain = 0
KLA1 241638Z 14009KT 21/16 A3012 RMK A01 T02100155  RH  071%=      5-min Rain = 0
KLA1 241639Z 15010KT 21/15 A3012 RMK A01 T02100153  RH  070%=      5-min Rain = 0
KLA1 241640Z 15011KT 21/15 A3012 RMK A01 T02100153  RH  070%=      5-min Rain = 0
KLA1 241641Z 18009KT 21/15 A3012 RMK A01 T02100152  RH  070%=      5-min Rain = 0
KLA1 241642Z 18012KT 21/15 A3011 RMK A01 T02100154  RH  070%=      5-min Rain = 0
KLA1 241643Z 16013KT 21/15 A3012 RMK A01 T02110153  RH  069%=      5-min Rain = 0
KLA1 241644Z 17011KT 21/15 A3012 RMK A01 T02090154  RH  071%=      5-min Rain = 0
KLA1 241645Z 18010KT 21/15 A3012 RMK A01 T02080152  RH  070%=      5-min Rain = 0
KLA1 241646Z 19008KT 21/15 A3012 RMK A01 T02060150  RH  070%=      5-min Rain = 0
KLA1 241647Z 20007KT 21/15 A3011 RMK A01 T02060151  RH  071%=      5-min Rain = 0
KLA1 241648Z 17007KT 21/15 A3011 RMK A01 T02090151  RH  069%=      5-min Rain = 0
KLA1 241649Z 18007KT 21/15 A3011 RMK A01 T02100151  RH  069%=      5-min Rain = 0
KLA1 241650Z 19009KT 21/15 A3011 RMK A01 T02080150  RH  069%=      5-min Rain = 0
KLA1 241651Z 19006KT 21/15 A3011 RMK A01 T02090150  RH  069%=      5-min Rain = 0
KLA1 241652Z 19005KT 21/15 A3011 RMK A01 T02090153  RH  070%=      5-min Rain = 0
KLA1 241653Z 16008KT 21/16 A3011 RMK A01 T02110156  RH  071%=      5-min Rain = 0
KLA1 241654Z 16010KT 21/16 A3011 RMK A01 T02140156  RH  069%=      5-min Rain = 0
KLA1 241655Z 17007KT 22/15 A3011 RMK A01 T02150153  RH  068%=      5-min Rain = 0
KLA1 241656Z 16009KT 21/16 A3011 RMK A01 T02140155  RH  069%=      5-min Rain = 0
KLA1 241657Z 16008KT 21/15 A3011 RMK A01 T02140154  RH  069%=      5-min Rain = 0
KLA1 241658Z 17006KT 21/15 A3011 RMK A01 T02140154  RH  069%=      5-min Rain = 0
KLA1 241659Z 18008KT 22/16 A3011 RMK A01 T02150155  RH  069%=      5-min Rain = 0
KLA1 241700Z 19008KT 22/15 A3011 RMK A01 T02160154  RH  068%=      5-min Rain = 0
KLA1 241701Z 19008KT 21/15 A3011 RMK A01 T02130152  RH  068%=      5-min Rain = 0
KLA1 241702Z 20008KT 21/15 A3011 RMK A01 T02110153  RH  069%=      5-min Rain = 0
KLA1 241703Z 19007KT 21/15 A3011 RMK A01 T02110152  RH  069%=      5-min Rain = 0
KLA1 241704Z 19008KT 21/15 A3011 RMK A01 T02100152  RH  069%=      5-min Rain = 0
KLA1 241705Z 19006KT 21/15 A3011 RMK A01 T02090152  RH  070%=      5-min Rain = 0
KLA1 241706Z 19006KT 21/15 A3011 RMK A01 T02100152  RH  070%=      5-min Rain = 0
KLA1 241707Z 16006KT 21/16 A3011 RMK A01 T02110155  RH  070%=      5-min Rain = 0
KLA1 241708Z 13005KT 21/15 A3011 RMK A01 T02140151  RH  067%=      5-min Rain = 0
KLA1 241709Z 13005KT 21/15 A3011 RMK A01 T02130151  RH  068%=      5-min Rain = 0
KLA1 241710Z 15007KT 21/15 A3011 RMK A01 T02120153  RH  069%=      5-min Rain = 0
KLA1 241711Z 16007KT 21/15 A3011 RMK A01 T02120152  RH  068%=      5-min Rain = 0
KLA1 241712Z 14005KT 21/15 A3011 RMK A01 T02130154  RH  069%=      5-min Rain = 0
KLA1 241713Z 15006KT 21/15 A3011 RMK A01 T02140153  RH  068%=      5-min Rain = 0
KLA1 241714Z 15008G13KT 22/15 A3011 RMK A01 T02160154  RH  068%=      5-min Rain = 0
KLA1 241715Z 17008KT 22/16 A3011 RMK A01 T02180155  RH  067%=      5-min Rain = 0
KLA1 241716Z 18007KT 22/15 A3011 RMK A01 T02180153  RH  067%=      5-min Rain = 0
KLA1 241717Z 17005KT 22/15 A3011 RMK A01 T02170154  RH  067%=      5-min Rain = 0
KLA1 241718Z 15004KT 22/15 A3011 RMK A01 T02180153  RH  067%=      5-min Rain = 0
KLA1 241719Z 17007KT 22/15 A3011 RMK A01 T02180152  RH  066%=      5-min Rain = 0
KLA1 241720Z 18007KT 22/15 A3011 RMK A01 T02170151  RH  066%=      5-min Rain = 0
KLA1 241721Z 16007KT 22/15 A3011 RMK A01 T02180153  RH  067%=      5-min Rain = 0
KLA1 241722Z 13007KT 22/15 A3011 RMK A01 T02170154  RH  067%=      5-min Rain = 0
KLA1 241723Z 14007KT 22/15 A3011 RMK A01 T02150154  RH  068%=      5-min Rain = 0
KLA1 241724Z 15007KT 22/15 A3011 RMK A01 T02150154  RH  068%=      5-min Rain = 0
KLA1 241725Z 15006KT 22/15 A3011 RMK A01 T02160153  RH  067%=      5-min Rain = 0
KLA1 241726Z 18007KT 22/15 A3011 RMK A01 T02160150  RH  066%=      5-min Rain = 0
KLA1 241727Z 16007KT 22/15 A3011 RMK A01 T02170152  RH  067%=      5-min Rain = 0
KLA1 241728Z 16008KT 22/15 A3011 RMK A01 T02180153  RH  066%=      5-min Rain = 0
KLA1 241729Z 14007KT 22/16 A3011 RMK A01 T02180155  RH  067%=      5-min Rain = 0
KLA1 241730Z 14007KT 22/15 A3011 RMK A01 T02180154  RH  067%=      5-min Rain = 0
KLA1 241731Z 15008KT 22/15 A3011 RMK A01 T02180153  RH  066%=      5-min Rain = 0
KLA1 241732Z 15008KT 22/15 A3011 RMK A01 T02190152  RH  066%=      5-min Rain = 0
KLA1 241733Z 18005KT 22/15 A3011 RMK A01 T02190151  RH  065%=      5-min Rain = 0
KLA1 241734Z 18008KT 22/15 A3011 RMK A01 T02190153  RH  066%=      5-min Rain = 0
KLA1 241735Z 17009KT 22/15 A3011 RMK A01 T02180153  RH  066%=      5-min Rain = 0
KLA1 241736Z 16008KT 22/15 A3011 RMK A01 T02180153  RH  067%=      5-min Rain = 0
KLA1 241737Z 17009KT 22/16 A3011 RMK A01 T02180155  RH  067%=      5-min Rain = 0
KLA1 241738Z 14010KT 22/15 A3011 RMK A01 T02180154  RH  067%=      5-min Rain = 0
KLA1 241739Z 13009KT 22/15 A3011 RMK A01 T02190154  RH  066%=      5-min Rain = 0
KLA1 241740Z 14007KT 22/15 A3011 RMK A01 T02200153  RH  065%=      5-min Rain = 0
KLA1 241741Z 12006KT 22/15 A3011 RMK A01 T02200153  RH  066%=      5-min Rain = 0
KLA1 241742Z 14007KT 22/16 A3011 RMK A01 T02200155  RH  066%=      5-min Rain = 0
KLA1 241743Z 12008KT 22/15 A301 RMK A01 T02220154  RH  065%=      5-min Rain = 0
KLA1 241744Z 13009KT 22/15 A301 RMK A01 T02220154  RH  065%=      5-min Rain = 0
KLA1 241745Z 14007KT 22/15 A301 RMK A01 T02220153  RH  065%=      5-min Rain = 0
KLA1 241746Z 13006KT 22/15 A301 RMK A01 T02200152  RH  065%=      5-min Rain = 0
KLA1 241747Z 14005KT 22/16 A301 RMK A01 T02200156  RH  067%=      5-min Rain = 0
KLA1 241748Z 15007KT 22/16 A301 RMK A01 T02220156  RH  066%=      5-min Rain = 0
KLA1 241749Z 13008KT 22/15 A301 RMK A01 T02230154  RH  065%=      5-min Rain = 0
KLA1 241750Z 14006KT 22/16 A301 RMK A01 T02220156  RH  066%=      5-min Rain = 0
KLA1 241751Z 14007KT 22/16 A301 RMK A01 T02230155  RH  065%=      5-min Rain = 0
KLA1 241752Z 14007KT 22/15 A301 RMK A01 T02230153  RH  065%=      5-min Rain = 0
KLA1 241753Z 15008KT 22/15 A301 RMK A01 T02230154  RH  065%=      5-min Rain = 0
KLA1 241754Z 14005KT 22/15 A301 RMK A01 T02220154  RH  065%=      5-min Rain = 0
KLA1 241755Z 13009KT 22/16 A301 RMK A01 T02240158  RH  066%=      5-min Rain = 0
KLA1 241756Z 14009KT 23/16 A301 RMK A01 T02250155  RH  065%=      5-min Rain = 0
KLA1 241757Z 14008KT 22/16 A301 RMK A01 T02240156  RH  065%=      5-min Rain = 0
KLA1 241758Z 12007KT 23/15 A301 RMK A01 T02250154  RH  064%=      5-min Rain = 0
KLA1 241759Z 13007KT 22/16 A301 RMK A01 T02230155  RH  065%=      5-min Rain = 0
KLA1 241800Z 13008KT 22/16 A301 RMK A01 T02240158  RH  066%=      5-min Rain = 0
KLA1 241801Z 12009KT 22/16 A301 RMK A01 T02240158  RH  066%=      5-min Rain = 0
KLA1 241802Z 13011KT 22/16 A301 RMK A01 T02240159  RH  067%=      5-min Rain = 0
KLA1 241803Z 12008KT 22/16 A301 RMK A01 T02240159  RH  067%=      5-min Rain = 0
KLA1 241804Z 11006KT 22/16 A301 RMK A01 T02220157  RH  066%=      5-min Rain = 0
KLA1 241805Z 12009KT 22/16 A301 RMK A01 T02210158  RH  067%=      5-min Rain = 0
KLA1 241806Z 15007KT 22/16 A301 RMK A01 T02210157  RH  067%=      5-min Rain = 0
KLA1 241807Z 14007KT 22/16 A301 RMK A01 T02230157  RH  066%=      5-min Rain = 0
KLA1 241808Z 13005KT 23/15 A301 RMK A01 T02250154  RH  064%=      5-min Rain = 0
KLA1 241809Z 13009KT 23/16 A301 RMK A01 T02260161  RH  066%=      5-min Rain = 0
KLA1 241810Z 12009KT 23/16 A301 RMK A01 T02270157  RH  065%=      5-min Rain = 0
KLA1 241811Z 13009KT 23/16 A301 RMK A01 T02250158  RH  066%=      5-min Rain = 0
KLA1 241812Z 15007KT 22/16 A301 RMK A01 T02240158  RH  066%=      5-min Rain = 0
KLA1 241813Z 15008KT 22/16 A301 RMK A01 T02240158  RH  066%=      5-min Rain = 0
KLA1 241814Z 13009KT 22/16 A301 RMK A01 T02240157  RH  066%=      5-min Rain = 0
KLA1 241815Z 12007KT 22/16 A301 RMK A01 T02240157  RH  066%=      5-min Rain = 0
KLA1 241816Z 12010KT 23/16 A301 RMK A01 T02260157  RH  065%=      5-min Rain = 0
KLA1 241817Z 13008KT 23/16 A3009 RMK A01 T02250156  RH  065%=      5-min Rain = 0
KLA1 241818Z 15007KT 22/16 A3009 RMK A01 T02240157  RH  066%=      5-min Rain = 0
KLA1 241819Z 14008KT 23/16 A3009 RMK A01 T02250155  RH  065%=      5-min Rain = 0
KLA1 241820Z 13007KT 23/16 A3009 RMK A01 T02260156  RH  065%=      5-min Rain = 0
KLA1 241821Z 12009KT 23/16 A3009 RMK A01 T02270157  RH  065%=      5-min Rain = 0
KLA1 241822Z 13009KT 23/16 A3009 RMK A01 T02270158  RH  065%=      5-min Rain = 0
KLA1 241823Z 11008KT 23/16 A3009 RMK A01 T02270155  RH  064%=      5-min Rain = 0
KLA1 241824Z 11009KT 23/16 A3009 RMK A01 T02260156  RH  065%=      5-min Rain = 0
KLA1 241825Z 12009KT 23/16 A3009 RMK A01 T02260155  RH  064%=      5-min Rain = 0
KLA1 241826Z 12010KT 23/16 A3009 RMK A01 T02270155  RH  064%=      5-min Rain = 0
KLA1 241827Z 11008KT 23/16 A3009 RMK A01 T02270155  RH  064%=      5-min Rain = 0
KLA1 241828Z 11007KT 23/16 A3009 RMK A01 T02270156  RH  064%=      5-min Rain = 0
KLA1 241829Z 11008KT 23/16 A3009 RMK A01 T02270158  RH  065%=      5-min Rain = 0
KLA1 241830Z 12006KT 23/16 A3009 RMK A01 T02270158  RH  065%=      5-min Rain = 0
KLA1 241831Z 14010KT 23/16 A3009 RMK A01 T02290158  RH  065%=      5-min Rain = 0
KLA1 241832Z 12010KT 23/16 A3009 RMK A01 T02290158  RH  064%=      5-min Rain = 0
KLA1 241833Z 13008KT 23/16 A3009 RMK A01 T02290156  RH  063%=      5-min Rain = 0
KLA1 241834Z 14006KT 23/16 A3009 RMK A01 T02270155  RH  063%=      5-min Rain = 0
KLA1 241835Z 15006KT 23/16 A3009 RMK A01 T02270158  RH  065%=      5-min Rain = 0
KLA1 241836Z 14009KT 23/16 A3009 RMK A01 T02300160  RH  065%=      5-min Rain = 0
KLA1 241837Z 12007KT 23/16 A3009 RMK A01 T02310160  RH  064%=      5-min Rain = 0
KLA1 241838Z 12005KT 23/16 A3009 RMK A01 T02330160  RH  063%=      5-min Rain = 0
KLA1 241839Z 12008KT 24/16 A3009 RMK A01 T02350160  RH  063%=      5-min Rain = 0
KLA1 241840Z 13006KT 23/16 A3008 RMK A01 T02340157  RH  062%=      5-min Rain = 0
KLA1 241841Z 12007KT 23/16 A3008 RMK A01 T02320158  RH  063%=      5-min Rain = 0
KLA1 241842Z 11009KT 23/16 A3008 RMK A01 T02310156  RH  063%=      5-min Rain = 0
KLA1 241843Z 13008KT 23/16 A3008 RMK A01 T02290155  RH  063%=      5-min Rain = 0
KLA1 241844Z 14009KT 23/16 A3008 RMK A01 T02280157  RH  064%=      5-min Rain = 0
KLA1 241845Z 12007KT 23/16 A3008 RMK A01 T02280157  RH  064%=      5-min Rain = 0
KLA1 241846Z 12008KT 23/16 A3008 RMK A01 T02290157  RH  064%=      5-min Rain = 0
KLA1 241847Z 13006KT 23/16 A3008 RMK A01 T02290155  RH  063%=      5-min Rain = 0
KLA1 241848Z 12006KT 23/16 A3008 RMK A01 T02290155  RH  063%=      5-min Rain = 0
KLA1 241849Z 10007KT 23/16 A3008 RMK A01 T02300157  RH  063%=      5-min Rain = 0
KLA1 241850Z 13008KT 23/16 A3008 RMK A01 T02340158  RH  062%=      5-min Rain = 0
KLA1 241851Z 14009KT 24/16 A3008 RMK A01 T02350157  RH  061%=      5-min Rain = 0
KLA1 241852Z 13009KT 24/16 A3008 RMK A01 T02350158  RH  062%=      5-min Rain = 0
KLA1 241853Z 13009KT 24/16 A3008 RMK A01 T02380158  RH  061%=      5-min Rain = 0
KLA1 241854Z 13010KT 24/16 A3008 RMK A01 T02390156  RH  060%=      5-min Rain = 0
KLA1 241855Z 12005KT 24/15 A3008 RMK A01 T02370153  RH  059%=      5-min Rain = 0
KLA1 241856Z 09006KT 23/16 A3008 RMK A01 T02340155  RH  061%=      5-min Rain = 0
KLA1 241857Z 15008KT 24/16 A3008 RMK A01 T02350156  RH  061%=      5-min Rain = 0
KLA1 241858Z 13008KT 24/16 A3008 RMK A01 T02370156  RH  060%=      5-min Rain = 0
KLA1 241859Z 12007KT 24/15 A3008 RMK A01 T02370154  RH  060%=      5-min Rain = 0
KLA1 241900Z 11008KT 24/15 A3008 RMK A01 T02370154  RH  060%=      5-min Rain = 0
KLA1 241901Z 12008KT 24/15 A3007 RMK A01 T02370153  RH  059%=      5-min Rain = 0
KLA1 241902Z 13008KT 24/16 A3007 RMK A01 T02370155  RH  060%=      5-min Rain = 0
KLA1 241903Z 15008KT 24/16 A3007 RMK A01 T02370155  RH  060%=      5-min Rain = 0
KLA1 241904Z 13009KT 24/16 A3007 RMK A01 T02380157  RH  060%=      5-min Rain = 0
KLA1 241905Z 13009KT 24/16 A3007 RMK A01 T02410157  RH  059%=      5-min Rain = 0
KLA1 241906Z 13009KT 24/16 A3007 RMK A01 T02410156  RH  059%=      5-min Rain = 0
KLA1 241907Z 13007KT 24/16 A3007 RMK A01 T02410155  RH  059%=      5-min Rain = 0
KLA1 241908Z 13008KT 24/16 A3007 RMK A01 T02410157  RH  059%=      5-min Rain = 0
KLA1 241909Z 14010KT 24/16 A3007 RMK A01 T02440159  RH  059%=      5-min Rain = 0
KLA1 241910Z 14010KT 25/16 A3007 RMK A01 T02460157  RH  058%=      5-min Rain = 0
KLA1 241911Z 14005KT 24/15 A3006 RMK A01 T02430154  RH  057%=      5-min Rain = 0
KLA1 241912Z 11006KT 24/16 A3006 RMK A01 T02410157  RH  059%=      5-min Rain = 0
KLA1 241913Z 12008KT 24/16 A3006 RMK A01 T02430155  RH  058%=      5-min Rain = 0
KLA1 241914Z 13008KT 24/16 A3006 RMK A01 T02430155  RH  058%=      5-min Rain = 0
KLA1 241915Z 12008KT 24/15 A3006 RMK A01 T02430154  RH  058%=      5-min Rain = 0
KLA1 241916Z 12006KT 24/15 A3006 RMK A01 T02420151  RH  057%=      5-min Rain = 0
KLA1 241917Z 12005KT 24/15 A3006 RMK A01 T02410153  RH  058%=      5-min Rain = 0
KLA1 241918Z 13007KT 24/16 A3006 RMK A01 T02440157  RH  058%=      5-min Rain = 0
KLA1 241919Z 14007KT 25/15 A3006 RMK A01 T02480154  RH  056%=      5-min Rain = 0
KLA1 241920Z 14006KT 25/15 A3006 RMK A01 T02490152  RH  055%=      5-min Rain = 0
KLA1 241921Z 15006KT 25/15 A3006 RMK A01 T02500154  RH  055%=      5-min Rain = 0
KLA1 241922Z 14006KT 25/15 A3006 RMK A01 T02500150  RH  054%=      5-min Rain = 0
KLA1 241923Z 13008KT 25/15 A3006 RMK A01 T02490154  RH  055%=      5-min Rain = 0
KLA1 241924Z 15009KT 25/16 A3006 RMK A01 T02510155  RH  055%=      5-min Rain = 0
KLA1 241925Z 14006KT 25/15 A3006 RMK A01 T02510153  RH  055%=      5-min Rain = 0
KLA1 241926Z 12007KT 25/15 A3006 RMK A01 T02500150  RH  054%=      5-min Rain = 0
KLA1 241927Z 10004KT 25/15 A3006 RMK A01 T02470149  RH  054%=      5-min Rain = 0
KLA1 241928Z 11004KT 25/15 A3005 RMK A01 T02450148  RH  054%=      5-min Rain = 0
KLA1 241929Z 16007KT 25/15 A3005 RMK A01 T02450150  RH  056%=      5-min Rain = 0
KLA1 241930Z 16007KT 25/15 A3005 RMK A01 T02460149  RH  055%=      5-min Rain = 0
KLA1 241931Z 15006KT 25/15 A3005 RMK A01 T02470149  RH  054%=      5-min Rain = 0
KLA1 241932Z 14007KT 25/15 A3005 RMK A01 T02460148  RH  054%=      5-min Rain = 0
KLA1 241933Z 13008KT 25/15 A3005 RMK A01 T02450147  RH  054%=      5-min Rain = 0
KLA1 241934Z 12007KT 25/15 A3005 RMK A01 T02450148  RH  054%=      5-min Rain = 0
KLA1 241935Z 10006KT 25/15 A3005 RMK A01 T02460145  RH  053%=      5-min Rain = 0
KLA1 241936Z 10006KT 25/15 A3005 RMK A01 T02470146  RH  053%=      5-min Rain = 0
KLA1 241937Z 11006KT 25/14 A3005 RMK A01 T02480144  RH  052%=      5-min Rain = 0
KLA1 241938Z 12005KT 25/14 A3005 RMK A01 T02490144  RH  052%=      5-min Rain = 0
KLA1 241939Z 14005KT 25/14 A3005 RMK A01 T02490144  RH  052%=      5-min Rain = 0
KLA1 241940Z 15004KT 25/14 A3005 RMK A01 T02500141  RH  051%=      5-min Rain = 0
KLA1 241941Z 11004KT 25/14 A3005 RMK A01 T02500143  RH  051%=      5-min Rain = 0
KLA1 241942Z 13007KT 25/14 A3005 RMK A01 T02500144  RH  052%=      5-min Rain = 0
KLA1 241943Z 13005KT 25/14 A3005 RMK A01 T02500143  RH  051%=      5-min Rain = 0
KLA1 241944Z 09002KT 25/14 A3005 RMK A01 T02500142  RH  051%=      5-min Rain = 0
KLA1 241945Z 10003KT 25/15 A3005 RMK A01 T02500145  RH  052%=      5-min Rain = 0
KLA1 241946Z 11007KT 25/15 A3005 RMK A01 T02510145  RH  052%=      5-min Rain = 0
KLA1 241947Z 13006KT 26/15 A3005 RMK A01 T02550146  RH  051%=      5-min Rain = 0
KLA1 241948Z 12004KT 26/14 A3005 RMK A01 T02560141  RH  049%=      5-min Rain = 0
KLA1 241949Z 13008KT 25/14 A3004 RMK A01 T02540143  RH  050%=      5-min Rain = 0
KLA1 241950Z 15007KT 25/14 A3004 RMK A01 T02540144  RH  050%=      5-min Rain = 0
KLA1 241951Z 13006KT 26/14 A3004 RMK A01 T02550142  RH  049%=      5-min Rain = 0
KLA1 241952Z 12007KT 26/14 A3004 RMK A01 T02560140  RH  049%=      5-min Rain = 0
KLA1 241953Z 14007KT 26/14 A3004 RMK A01 T02560142  RH  049%=      5-min Rain = 0
KLA1 241954Z 13005KT 26/14 A3004 RMK A01 T02560138  RH  048%=      5-min Rain = 0
KLA1 241955Z 11005KT 26/14 A3004 RMK A01 T02560137  RH  048%=      5-min Rain = 0
KLA1 241956Z 11003KT 25/14 A3004 RMK A01 T02540138  RH  048%=      5-min Rain = 0
KLA1 241957Z 14005KT 26/14 A3004 RMK A01 T02550141  RH  049%=      5-min Rain = 0
KLA1 241958Z 13006KT 26/14 A3004 RMK A01 T02570140  RH  048%=      5-min Rain = 0
KLA1 241959Z 12005KT 26/14 A3004 RMK A01 T02580141  RH  048%=      5-min Rain = 0
KLA1 242000Z 12005KT 26/14 A3004 RMK A01 T02600139  RH  047%=      5-min Rain = 0
KLA1 242001Z 16005KT 26/13 A3004 RMK A01 T02610133  RH  045%=      5-min Rain = 0
KLA1 242002Z 17001KT 26/13 A3004 RMK A01 T02580129  RH  045%=      5-min Rain = 0
KLA1 242003Z 11004KT 26/13 A3004 RMK A01 T02570134  RH  047%=      5-min Rain = 0
KLA1 242004Z 12005KT 26/14 A3004 RMK A01 T02590141  RH  048%=      5-min Rain = 0
KLA1 242005Z 13007KT 26/14 A3004 RMK A01 T02620139  RH  047%=      5-min Rain = 0
KLA1 242006Z 13005KT 26/14 A3004 RMK A01 T02620135  RH  045%=      5-min Rain = 0
KLA1 242007Z 09003KT 26/13 A3004 RMK A01 T02600128  RH  044%=      5-min Rain = 0
KLA1 242008Z 09002KT 26/13 A3004 RMK A01 T02580133  RH  046%=      5-min Rain = 0
KLA1 242009Z 12003KT 26/14 A3004 RMK A01 T02580137  RH  047%=      5-min Rain = 0
KLA1 242010Z 12003KT 26/14 A3004 RMK A01 T02600135  RH  046%=      5-min Rain = 0
KLA1 242011Z 12003KT 26/13 A3004 RMK A01 T02600133  RH  045%=      5-min Rain = 0
KLA1 242012Z 17001KT 26/13 A3004 RMK A01 T02600130  RH  044%=      5-min Rain = 0
KLA1 242013Z 23003KT 26/13 A3004 RMK A01 T02610131  RH  045%=      5-min Rain = 0
KLA1 242014Z 26001KT 26/13 A3004 RMK A01 T02630130  RH  044%=      5-min Rain = 0
KLA1 242015Z 26003KT 26/13 A3004 RMK A01 T02640129  RH  043%=      5-min Rain = 0
KLA1 242016Z 27003KT 26/13 A3004 RMK A01 T02640129  RH  043%=      5-min Rain = 0
KLA1 242017Z 28000KT 27/13 A3004 RMK A01 T02650130  RH  043%=      5-min Rain = 0
KLA1 242018Z 16001KT 27/13 A3004 RMK A01 T02670130  RH  043%=      5-min Rain = 0
KLA1 242019Z 12004KT 27/13 A3004 RMK A01 T02670134  RH  044%=      5-min Rain = 0
KLA1 242020Z 13006KT 27/14 A3004 RMK A01 T02680135  RH  044%=      5-min Rain = 0
KLA1 242021Z 13005KT 27/13 A3004 RMK A01 T02670133  RH  043%=      5-min Rain = 0
KLA1 242022Z 12003KT 26/13 A3004 RMK A01 T02630132  RH  044%=      5-min Rain = 0
KLA1 242023Z 13004KT 26/13 A3003 RMK A01 T02630133  RH  045%=      5-min Rain = 0
KLA1 242024Z 14003KT 26/13 A3003 RMK A01 T02630131  RH  044%=      5-min Rain = 0
KLA1 242025Z 13004KT 26/13 A3003 RMK A01 T02630132  RH  044%=      5-min Rain = 0
KLA1 242026Z 17004KT 26/14 A3003 RMK A01 T02640135  RH  045%=      5-min Rain = 0
KLA1 242027Z 14004KT 27/13 A3003 RMK A01 T02650134  RH  044%=      5-min Rain = 0
KLA1 242028Z 12003KT 27/14 A3003 RMK A01 T02670135  RH  044%=      5-min Rain = 0
KLA1 242029Z 15005KT 27/14 A3003 RMK A01 T02680135  RH  044%=      5-min Rain = 0
KLA1 242030Z 14006KT 27/13 A3003 RMK A01 T02700129  RH  042%=      5-min Rain = 0
KLA1 242031Z 13003KT 27/13 A3003 RMK A01 T02690125  RH  041%=      5-min Rain = 0
KLA1 242032Z 14000KT 27/12 A3003 RMK A01 T02680124  RH  041%=      5-min Rain = 0
KLA1 242033Z 14000KT 27/12 A3003 RMK A01 T02690122  RH  040%=      5-min Rain = 0
KLA1 242034Z 04001KT 27/12 A3003 RMK A01 T02710123  RH  040%=      5-min Rain = 0
KLA1 242035Z 07002KT 27/12 A3003 RMK A01 T02720118  RH  038%=      5-min Rain = 0
KLA1 242036Z 10001KT 27/12 A3003 RMK A01 T02720117  RH  038%=      5-min Rain = 0
KLA1 242037Z 12001KT 27/12 A3002 RMK A01 T02710116  RH  038%=      5-min Rain = 0
KLA1 242038Z 14001KT 27/11 A3002 RMK A01 T02710114  RH  037%=      5-min Rain = 0
KLA1 242039Z 20002KT 27/11 A3002 RMK A01 T02730112  RH  037%=      5-min Rain = 0
KLA1 242040Z 20004KT 28/11 A3002 RMK A01 T02760112  RH  036%=      5-min Rain = 0
KLA1 242041Z 19003KT 28/11 A3002 RMK A01 T02770108  RH  035%=      5-min Rain = 0
KLA1 242042Z 19003KT 27/11 A3002 RMK A01 T02740107  RH  035%=      5-min Rain = 0
KLA1 242043Z 15005KT 27/11 A3002 RMK A01 T02730112  RH  037%=      5-min Rain = 0
KLA1 242044Z 13006KT 27/12 A3002 RMK A01 T02730121  RH  039%=      5-min Rain = 0
KLA1 242045Z 13005KT 27/12 A3002 RMK A01 T02730121  RH  039%=      5-min Rain = 0
KLA1 242046Z 14003KT 27/11 A3002 RMK A01 T02720113  RH  037%=      5-min Rain = 0
KLA1 242047Z 13006KT 27/11 A3002 RMK A01 T02710114  RH  037%=      5-min Rain = 0
KLA1 242048Z 12007KT 27/12 A3002 RMK A01 T02730115  RH  037%=      5-min Rain = 0
KLA1 242049Z 13006KT 27/11 A3002 RMK A01 T02740110  RH  036%=      5-min Rain = 0
KLA1 242050Z 12004KT 27/11 A3002 RMK A01 T02730107  RH  035%=      5-min Rain = 0
KLA1 242051Z 12003KT 27/11 A3002 RMK A01 T02720108  RH  036%=      5-min Rain = 0
KLA1 242052Z 07001KT 27/11 A3001 RMK A01 T02720105  RH  035%=      5-min Rain = 0
KLA1 242053Z 30001KT 27/11 A3001 RMK A01 T02730105  RH  035%=      5-min Rain = 0
KLA1 242054Z 29001KT 27/11 A3001 RMK A01 T02740105  RH  035%=      5-min Rain = 0
KLA1 242055Z 14004KT 28/11 A3001 RMK A01 T02760106  RH  035%=      5-min Rain = 0
KLA1 242056Z 14005KT 28/10 A3001 RMK A01 T02770104  RH  034%=      5-min Rain = 0
KLA1 242057Z 13004KT 28/10 A3001 RMK A01 T02770099  RH  033%=      5-min Rain = 0
KLA1 242058Z 13002KT 28/10 A3001 RMK A01 T02760101  RH  033%=      5-min Rain = 0
KLA1 242059Z 09002KT 28/10 A3001 RMK A01 T02760101  RH  033%=      5-min Rain = 0
KLA1 242100Z 09005KT 28/10 A3001 RMK A01 T02770103  RH  034%=      5-min Rain = 0
KLA1 242101Z 09004KT 28/10 A3001 RMK A01 T02790095  RH  032%=      5-min Rain = 0
KLA1 242102Z 06004KT 28/09 A3001 RMK A01 T02780094  RH  032%=      5-min Rain = 0
KLA1 242103Z 05003KT 28/10 A3001 RMK A01 T02780097  RH  032%=      5-min Rain = 0
KLA1 242104Z 04004KT 28/09 A3001 RMK A01 T02780094  RH  032%=      5-min Rain = 0
KLA1 242105Z 04004KT 28/09 A3001 RMK A01 T02780093  RH  031%=      5-min Rain = 0
KLA1 242106Z 03003KT 28/09 A3001 RMK A01 T02780089  RH  030%=      5-min Rain = 0
KLA1 242107Z 07002KT 28/09 A3001 RMK A01 T02780087  RH  030%=      5-min Rain = 0
KLA1 242108Z 03002KT 28/09 A3001 RMK A01 T02780091  RH  031%=      5-min Rain = 0
KLA1 242109Z 01001KT 28/09 A3001 RMK A01 T02790089  RH  030%=      5-min Rain = 0
KLA1 242110Z 35002KT 28/09 A3001 RMK A01 T02810088  RH  030%=      5-min Rain = 0
KLA1 242111Z 14001KT 28/09 A3001 RMK A01 T02820089  RH  030%=      5-min Rain = 0
KLA1 242112Z 16006KT 28/09 A30 RMK A01 T02830093  RH  031%=      5-min Rain = 0
KLA1 242113Z 17005KT 28/10 A30 RMK A01 T02810098  RH  032%=      5-min Rain = 0
KLA1 242114Z 14005KT 28/10 A30 RMK A01 T02800095  RH  031%=      5-min Rain = 0
KLA1 242115Z 17003KT 28/09 A30 RMK A01 T02790094  RH  031%=      5-min Rain = 0
KLA1 242116Z 14004KT 28/10 A30 RMK A01 T02790096  RH  032%=      5-min Rain = 0
KLA1 242117Z 14005KT 28/10 A30 RMK A01 T02790097  RH  032%=      5-min Rain = 0
KLA1 242118Z 16004KT 28/09 A30 RMK A01 T02790092  RH  031%=      5-min Rain = 0
KLA1 242119Z 17002KT 28/09 A30 RMK A01 T02780089  RH  031%=      5-min Rain = 0
KLA1 242120Z 18002KT 28/09 A30 RMK A01 T02770085  RH  030%=      5-min Rain = 0
KLA1 242121Z 19004KT 28/09 A30 RMK A01 T02770087  RH  030%=      5-min Rain = 0
KLA1 242122Z 21002KT 28/08 A30 RMK A01 T02780084  RH  030%=      5-min Rain = 0
KLA1 242123Z 19004KT 28/09 A30 RMK A01 T02780087  RH  030%=      5-min Rain = 0
KLA1 242124Z 14006KT 28/09 A30 RMK A01 T02790088  RH  030%=      5-min Rain = 0
KLA1 242125Z 12006KT 28/08 A30 RMK A01 T02810082  RH  029%=      5-min Rain = 0
KLA1 242126Z 13002KT 28/08 A30 RMK A01 T02800078  RH  028%=      5-min Rain = 0
KLA1 242127Z 12001KT 28/07 A30 RMK A01 T02800073  RH  027%=      5-min Rain = 0
KLA1 242128Z 17004KT 28/08 A30 RMK A01 T02810075  RH  027%=      5-min Rain = 0
KLA1 242129Z 17005KT 28/08 A30 RMK A01 T02820078  RH  028%=      5-min Rain = 0
KLA1 242130Z 19004KT 28/07 A30 RMK A01 T02830071  RH  026%=      5-min Rain = 0
KLA1 242131Z 16003KT 28/07 A30 RMK A01 T02820070  RH  026%=      5-min Rain = 0
KLA1 242132Z 15003KT 28/07 A30 RMK A01 T02820073  RH  027%=      5-min Rain = 0
KLA1 242133Z 17006KT 28/08 A2999 RMK A01 T02840078  RH  027%=      5-min Rain = 0
KLA1 242134Z 15006KT 29/07 A2999 RMK A01 T02860071  RH  026%=      5-min Rain = 0
KLA1 242135Z 15004KT 29/06 A2999 RMK A01 T02850061  RH  024%=      5-min Rain = 0
KLA1 242136Z 14003KT 28/06 A2999 RMK A01 T02830061  RH  024%=      5-min Rain = 0
KLA1 242137Z 12005G10KT 28/06 A2999 RMK A01 T02830063  RH  025%=      5-min Rain = 0
KLA1 242138Z 12007KT 28/07 A2999 RMK A01 T02830070  RH  026%=      5-min Rain = 0
KLA1 242139Z 14006KT 29/07 A2999 RMK A01 T02850065  RH  025%=      5-min Rain = 0
KLA1 242140Z 14007KT 29/07 A2999 RMK A01 T02850065  RH  025%=      5-min Rain = 0
KLA1 242141Z 16004KT 28/07 A2999 RMK A01 T02840066  RH  025%=      5-min Rain = 0
KLA1 242142Z 18001KT 28/07 A2999 RMK A01 T02820067  RH  026%=      5-min Rain = 0
KLA1 242143Z 08000KT 28/06 A2999 RMK A01 T02820062  RH  025%=      5-min Rain = 0
KLA1 242144Z 05003KT 28/06 A2999 RMK A01 T02820062  RH  025%=      5-min Rain = 0
KLA1 242145Z 09005KT 28/07 A2999 RMK A01 T02820065  RH  025%=      5-min Rain = 0
KLA1 242146Z 13006KT 29/07 A2999 RMK A01 T02850070  RH  026%=      5-min Rain = 0
KLA1 242147Z 14005KT 29/06 A2999 RMK A01 T02860061  RH  024%=      5-min Rain = 0
KLA1 242148Z 15006KT 29/06 A2999 RMK A01 T02850062  RH  024%=      5-min Rain = 0
KLA1 242149Z 17007KT 28/06 A2999 RMK A01 T02840060  RH  024%=      5-min Rain = 0
KLA1 242150Z 18007KT 28/06 A2999 RMK A01 T02830062  RH  025%=      5-min Rain = 0
KLA1 242151Z 19006KT 28/06 A2999 RMK A01 T02830059  RH  024%=      5-min Rain = 0
KLA1 242152Z 20004KT 28/06 A2999 RMK A01 T02830056  RH  024%=      5-min Rain = 0
KLA1 242153Z 21004KT 28/06 A2999 RMK A01 T02830056  RH  024%=      5-min Rain = 0
KLA1 242154Z 21003KT 28/06 A2999 RMK A01 T02840055  RH  023%=      5-min Rain = 0
KLA1 242155Z 20001KT 28/06 A2999 RMK A01 T02840056  RH  023%=      5-min Rain = 0
KLA1 242156Z 16002KT 29/05 A2999 RMK A01 T02850051  RH  023%=      5-min Rain = 0
KLA1 242157Z 14002KT 29/05 A2999 RMK A01 T02850049  RH  022%=      5-min Rain = 0
KLA1 242158Z 16002KT 29/04 A2999 RMK A01 T02860044  RH  021%=      5-min Rain = 0
KLA1 242159Z 15004KT 29/05 A2999 RMK A01 T02860045  RH  022%=      5-min Rain = 0
KLA1 242200Z 16002KT 29/05 A2999 RMK A01 T02860051  RH  023%=      5-min Rain = 0
KLA1 242201Z 23001KT 29/05 A2999 RMK A01 T02860045  RH  022%=      5-min Rain = 0
KLA1 242202Z 22001KT 29/04 A2999 RMK A01 T02870044  RH  021%=      5-min Rain = 0
KLA1 242203Z 11005KT 29/05 A2999 RMK A01 T02860050  RH  022%=      5-min Rain = 0
KLA1 242204Z 15007KT 29/05 A2999 RMK A01 T02860049  RH  022%=      5-min Rain = 0
KLA1 242205Z 15004KT 29/05 A2999 RMK A01 T02860054  RH  023%=      5-min Rain = 0
KLA1 242206Z 13003KT 29/05 A2999 RMK A01 T02870048  RH  022%=      5-min Rain = 0
KLA1 242207Z 12005KT 29/04 A2999 RMK A01 T02870043  RH  021%=      5-min Rain = 0
KLA1 242208Z 15005KT 29/04 A2999 RMK A01 T02850042  RH  021%=      5-min Rain = 0
KLA1 242209Z 16004KT 28/04 A2999 RMK A01 T02840040  RH  021%=      5-min Rain = 0
KLA1 242210Z 19004KT 28/04 A2999 RMK A01 T02840038  RH  021%=      5-min Rain = 0
KLA1 242211Z 20003KT 28/04 A2998 RMK A01 T02840037  RH  021%=      5-min Rain = 0
KLA1 242212Z 24002KT 28/04 A2998 RMK A01 T02840039  RH  021%=      5-min Rain = 0
KLA1 242213Z 23002KT 29/04 A2998 RMK A01 T02850042  RH  021%=      5-min Rain = 0
KLA1 242214Z 14003KT 29/04 A2998 RMK A01 T02870040  RH  021%=      5-min Rain = 0
KLA1 242215Z 11003KT 29/04 A2998 RMK A01 T02870036  RH  020%=      5-min Rain = 0
KLA1 242216Z 08002KT 29/04 A2998 RMK A01 T02870037  RH  020%=      5-min Rain = 0
KLA1 242217Z 10003KT 29/04 A2998 RMK A01 T02870039  RH  020%=      5-min Rain = 0
KLA1 242218Z 10005KT 29/04 A2998 RMK A01 T02880041  RH  021%=      5-min Rain = 0
KLA1 242219Z 09003KT 29/04 A2998 RMK A01 T02880040  RH  020%=      5-min Rain = 0
KLA1 242220Z 12003KT 29/04 A2998 RMK A01 T02890043  RH  021%=      5-min Rain = 0
KLA1 242221Z 14002KT 29/04 A2998 RMK A01 T02900041  RH  020%=      5-min Rain = 0
KLA1 242222Z 17003KT 29/04 A2998 RMK A01 T02900044  RH  021%=      5-min Rain = 0
KLA1 242223Z 14004KT 29/04 A2998 RMK A01 T02910044  RH  021%=      5-min Rain = 0
KLA1 242224Z 14006KT 29/04 A2998 RMK A01 T02910042  RH  020%=      5-min Rain = 0
KLA1 242225Z 14005KT 29/04 A2998 RMK A01 T02910036  RH  020%=      5-min Rain = 0
KLA1 242226Z 16003KT 29/03 A2998 RMK A01 T02900033  RH  019%=      5-min Rain = 0
KLA1 242227Z 14002KT 29/03 A2998 RMK A01 T02890034  RH  020%=      5-min Rain = 0
KLA1 242228Z 14002KT 29/03 A2998 RMK A01 T02880029  RH  019%=      5-min Rain = 0
KLA1 242229Z 14006KT 29/04 A2998 RMK A01 T02890037  RH  020%=      5-min Rain = 0
KLA1 242230Z 13007KT 29/03 A2998 RMK A01 T02890030  RH  019%=      5-min Rain = 0
KLA1 242231Z 13005KT 29/03 A2998 RMK A01 T02880028  RH  019%=      5-min Rain = 0
KLA1 242232Z 12006KT 29/03 A2998 RMK A01 T02860028  RH  019%=      5-min Rain = 0
KLA1 242233Z 11005KT 28/03 A2998 RMK A01 T02840029  RH  019%=      5-min Rain = 0
KLA1 242234Z 10004KT 28/03 A2998 RMK A01 T02840030  RH  020%=      5-min Rain = 0
KLA1 242235Z 12005KT 28/03 A2998 RMK A01 T02840031  RH  020%=      5-min Rain = 0
KLA1 242236Z 11006KT 28/03 A2998 RMK A01 T02830029  RH  019%=      5-min Rain = 0
KLA1 242237Z 11005KT 28/03 A2998 RMK A01 T02830031  RH  020%=      5-min Rain = 0
KLA1 242238Z 10005KT 28/03 A2998 RMK A01 T02840031  RH  020%=      5-min Rain = 0
KLA1 242239Z 10005KT 28/03 A2998 RMK A01 T02840029  RH  019%=      5-min Rain = 0
KLA1 242240Z 12004KT 28/03 A2998 RMK A01 T02840029  RH  019%=      5-min Rain = 0
KLA1 242241Z 14000KT 28/03 A2998 RMK A01 T02840025  RH  019%=      5-min Rain = 0
KLA1 242242Z 10001KT 28/02 A2998 RMK A01 T02840024  RH  019%=      5-min Rain = 0
KLA1 242243Z 09003KT 28/03 A2998 RMK A01 T02840029  RH  019%=      5-min Rain = 0
KLA1 242244Z 07003KT 29/04 A2998 RMK A01 T02860035  RH  020%=      5-min Rain = 0
KLA1 242245Z 06003KT 29/04 A2998 RMK A01 T02870036  RH  020%=      5-min Rain = 0
KLA1 242246Z 09003KT 29/04 A2998 RMK A01 T02890036  RH  020%=      5-min Rain = 0
KLA1 242247Z 11003KT 29/03 A2998 RMK A01 T02890031  RH  019%=      5-min Rain = 0
KLA1 242248Z 11004KT 29/04 A2998 RMK A01 T02900037  RH  020%=      5-min Rain = 0
KLA1 242249Z 08002KT 29/03 A2998 RMK A01 T02900032  RH  019%=      5-min Rain = 0
KLA1 242250Z 12006KT 29/04 A2998 RMK A01 T02910037  RH  020%=      5-min Rain = 0
KLA1 242251Z 16004KT 29/04 A2998 RMK A01 T02910043  RH  021%=      5-min Rain = 0
KLA1 242252Z 15002KT 29/03 A2998 RMK A01 T02910034  RH  019%=      5-min Rain = 0
KLA1 242253Z 14005KT 29/04 A2998 RMK A01 T02910041  RH  020%=      5-min Rain = 0
KLA1 242254Z 12003KT 29/04 A2998 RMK A01 T02910043  RH  021%=      5-min Rain = 0
KLA1 242255Z 15008KT 29/05 A2998 RMK A01 T02930048  RH  021%=      5-min Rain = 0
KLA1 242256Z 15006KT 29/04 A2998 RMK A01 T02940042  RH  020%=      5-min Rain = 0
KLA1 242257Z 16005KT 29/04 A2998 RMK A01 T02930040  RH  020%=      5-min Rain = 0
KLA1 242258Z 15005KT 29/04 A2998 RMK A01 T02930044  RH  021%=      5-min Rain = 0
KLA1 242259Z 14004KT 29/04 A2998 RMK A01 T02920038  RH  020%=      5-min Rain = 0
KLA1 242300Z 15002KT 29/03 A2998 RMK A01 T02920032  RH  019%=      5-min Rain = 0
KLA1 242301Z 15001KT 29/03 A2998 RMK A01 T02910034  RH  019%=      5-min Rain = 0
KLA1 242302Z 15004KT 29/04 A2998 RMK A01 T02910042  RH  020%=      5-min Rain = 0
KLA1 242303Z 18002KT 29/04 A2998 RMK A01 T02920043  RH  021%=      5-min Rain = 0
KLA1 242304Z 18002KT 29/04 A2998 RMK A01 T02930036  RH  019%=      5-min Rain = 0
KLA1 242305Z 12004G11KT 29/04 A2998 RMK A01 T02930038  RH  020%=      5-min Rain = 0
KLA1 242306Z 16008G15KT 29/04 A2997 RMK A01 T02940044  RH  020%=      5-min Rain = 0
KLA1 242307Z 14006KT 29/05 A2998 RMK A01 T02940045  RH  020%=      5-min Rain = 0
KLA1 242308Z 13006KT 29/04 A2998 RMK A01 T02940039  RH  020%=      5-min Rain = 0
KLA1 242309Z 13007KT 29/04 A2998 RMK A01 T02930039  RH  020%=      5-min Rain = 0
KLA1 242310Z 14009KT 29/04 A2998 RMK A01 T02920040  RH  020%=      5-min Rain = 0
KLA1 242311Z 13008KT 29/04 A2998 RMK A01 T02920039  RH  020%=      5-min Rain = 0
KLA1 242312Z 13008KT 29/04 A2998 RMK A01 T02920038  RH  020%=      5-min Rain = 0
KLA1 242313Z 13007KT 29/03 A2998 RMK A01 T02910033  RH  019%=      5-min Rain = 0
KLA1 242314Z 15008KT 29/04 A2998 RMK A01 T02900039  RH  020%=      5-min Rain = 0
KLA1 242315Z 14008KT 29/04 A2998 RMK A01 T02900039  RH  020%=      5-min Rain = 0
KLA1 242316Z 15007KT 29/04 A2998 RMK A01 T02900039  RH  020%=      5-min Rain = 0
KLA1 242317Z 14006KT 29/04 A2998 RMK A01 T02900035  RH  020%=      5-min Rain = 0
KLA1 242318Z 13008KT 29/04 A2998 RMK A01 T02890036  RH  020%=      5-min Rain = 0
KLA1 242319Z 13006KT 29/03 A2998 RMK A01 T02890033  RH  019%=      5-min Rain = 0
KLA1 242320Z 12006KT 29/04 A2998 RMK A01 T02890035  RH  020%=      5-min Rain = 0
KLA1 242321Z 13005KT 29/03 A2998 RMK A01 T02890034  RH  020%=      5-min Rain = 0
KLA1 242322Z 15006KT 29/04 A2998 RMK A01 T02890035  RH  020%=      5-min Rain = 0
KLA1 242323Z 14007KT 29/04 A2998 RMK A01 T02890035  RH  020%=      5-min Rain = 0
KLA1 242324Z 14006KT 29/03 A2998 RMK A01 T02900033  RH  019%=      5-min Rain = 0
KLA1 242325Z 15007KT 29/04 A2998 RMK A01 T02900037  RH  020%=      5-min Rain = 0
KLA1 242326Z 16005KT 29/03 A2998 RMK A01 T02900030  RH  019%=      5-min Rain = 0
KLA1 242327Z 18004KT 29/04 A2998 RMK A01 T02900039  RH  020%=      5-min Rain = 0
KLA1 242328Z 19004KT 29/03 A2998 RMK A01 T02900031  RH  019%=      5-min Rain = 0
KLA1 242329Z 19002KT 29/02 A2998 RMK A01 T02900023  RH  018%=      5-min Rain = 0
KLA1 242330Z 13003KT 29/03 A2998 RMK A01 T02900030  RH  019%=      5-min Rain = 0
KLA1 242331Z 10005KT 29/03 A2998 RMK A01 T02900031  RH  019%=      5-min Rain = 0
KLA1 242332Z 11005KT 29/03 A2998 RMK A01 T02900027  RH  019%=      5-min Rain = 0
KLA1 242333Z 15005KT 29/03 A2998 RMK A01 T02890029  RH  019%=      5-min Rain = 0
KLA1 242334Z 16006KT 29/03 A2998 RMK A01 T02880034  RH  020%=      5-min Rain = 0
KLA1 242335Z 16007KT 29/04 A2998 RMK A01 T02880039  RH  020%=      5-min Rain = 0
KLA1 242336Z 16005KT 29/03 A2998 RMK A01 T02880033  RH  020%=      5-min Rain = 0
KLA1 242337Z 17006KT 29/03 A2998 RMK A01 T02880034  RH  020%=      5-min Rain = 0
KLA1 242338Z 16006KT 29/04 A2998 RMK A01 T02880039  RH  020%=      5-min Rain = 0
KLA1 242339Z 16006KT 29/03 A2998 RMK A01 T02880034  RH  020%=      5-min Rain = 0
KLA1 242340Z 18007KT 29/04 A2998 RMK A01 T02870036  RH  020%=      5-min Rain = 0
KLA1 242341Z 17006KT 29/03 A2998 RMK A01 T02870032  RH  020%=      5-min Rain = 0
KLA1 242342Z 16006KT 29/04 A2998 RMK A01 T02870040  RH  021%=      5-min Rain = 0
KLA1 242343Z 14007KT 29/04 A2998 RMK A01 T02860036  RH  020%=      5-min Rain = 0
KLA1 242344Z 14006KT 29/04 A2998 RMK A01 T02860038  RH  020%=      5-min Rain = 0
KLA1 242345Z 16008KT 29/04 A2998 RMK A01 T02870041  RH  021%=      5-min Rain = 0
KLA1 242346Z 15008KT 29/03 A2998 RMK A01 T02860034  RH  020%=      5-min Rain = 0
KLA1 242347Z 16007KT 29/04 A2998 RMK A01 T02850036  RH  020%=      5-min Rain = 0
KLA1 242348Z 14003KT 29/04 A2998 RMK A01 T02850036  RH  020%=      5-min Rain = 0
KLA1 242349Z 13004KT 29/04 A2998 RMK A01 T02850040  RH  021%=      5-min Rain = 0
KLA1 242350Z 13006KT 29/04 A2998 RMK A01 T02850037  RH  020%=      5-min Rain = 0
KLA1 242351Z 13005KT 29/03 A2998 RMK A01 T02850034  RH  020%=      5-min Rain = 0
KLA1 242352Z 15003KT 29/03 A2998 RMK A01 T02850033  RH  020%=      5-min Rain = 0
KLA1 242353Z 14004KT 29/04 A2998 RMK A01 T02850038  RH  021%=      5-min Rain = 0
KLA1 242354Z 13004KT 29/04 A2998 RMK A01 T02850038  RH  021%=      5-min Rain = 0
KLA1 242355Z 13004KT 29/04 A2998 RMK A01 T02850035  RH  020%=      5-min Rain = 0
KLA1 242356Z 13005KT 29/04 A2998 RMK A01 T02850037  RH  020%=      5-min Rain = 0
KLA1 242357Z 14005KT 28/04 A2998 RMK A01 T02840038  RH  021%=      5-min Rain = 0
KLA1 242358Z 13005KT 28/04 A2998 RMK A01 T02840037  RH  021%=      5-min Rain = 0
KLA1 242359Z 14004KT 28/03 A2998 RMK A01 T02840032  RH  020%=      5-min Rain = 0
KLA1 250000Z 16004KT 28/03 A2998 RMK A01 T02840034  RH  020%=      5-min Rain = 0
KLA1 250001Z 15002KT 28/04 A2998 RMK A01 T02840036  RH  021%=      5-min Rain = 0
KLA1 250002Z 13003KT 28/04 A2998 RMK A01 T02840044  RH  022%=      5-min Rain = 0
KLA1 250003Z 16005KT 29/04 A2998 RMK A01 T02850041  RH  021%=      5-min Rain = 0
KLA1 250004Z 15005KT 28/04 A2998 RMK A01 T02840039  RH  021%=      5-min Rain = 0
KLA1 250005Z 15005KT 28/04 A2999 RMK A01 T02840039  RH  021%=      5-min Rain = 0
KLA1 250006Z 14007KT 28/04 A2999 RMK A01 T02840037  RH  021%=      5-min Rain = 0
KLA1 250007Z 14007KT 28/04 A2999 RMK A01 T02830036  RH  021%=      5-min Rain = 0
KLA1 250008Z 13006KT 28/04 A2999 RMK A01 T02830036  RH  021%=      5-min Rain = 0
KLA1 250009Z 14005KT 28/04 A2999 RMK A01 T02820035  RH  021%=      5-min Rain = 0
KLA1 250010Z 14005KT 28/04 A2999 RMK A01 T02820035  RH  021%=      5-min Rain = 0
KLA1 250011Z 14005KT 28/04 A2999 RMK A01 T02820036  RH  021%=      5-min Rain = 0
KLA1 250012Z 14006KT 28/04 A2999 RMK A01 T02820039  RH  021%=      5-min Rain = 0
KLA1 250013Z 16006KT 28/04 A2999 RMK A01 T02810041  RH  021%=      5-min Rain = 0
KLA1 250014Z 17006KT 28/04 A2999 RMK A01 T02810041  RH  022%=      5-min Rain = 0
KLA1 250015Z 18006KT 28/03 A2999 RMK A01 T02800034  RH  021%=      5-min Rain = 0
KLA1 250016Z 17004KT 28/03 A2999 RMK A01 T02800033  RH  020%=      5-min Rain = 0
KLA1 250017Z 16004KT 28/04 A2999 RMK A01 T02800035  RH  021%=      5-min Rain = 0
KLA1 250018Z 15005KT 28/04 A2999 RMK A01 T02800037  RH  021%=      5-min Rain = 0
KLA1 250019Z 15005KT 28/04 A2999 RMK A01 T02790042  RH  022%=      5-min Rain = 0
KLA1 250020Z 15007KT 28/04 A2999 RMK A01 T02790039  RH  021%=      5-min Rain = 0
KLA1 250021Z 15006KT 28/04 A2999 RMK A01 T02780036  RH  021%=      5-min Rain = 0
KLA1 250022Z 15005KT 28/04 A2999 RMK A01 T02780037  RH  021%=      5-min Rain = 0
KLA1 250023Z 15006KT 28/04 A2999 RMK A01 T02770037  RH  021%=      5-min Rain = 0
KLA1 250024Z 14005KT 28/04 A2999 RMK A01 T02760039  RH  022%=      5-min Rain = 0
KLA1 250025Z 13004KT 28/04 A2999 RMK A01 T02760041  RH  022%=      5-min Rain = 0
KLA1 250026Z 14004KT 28/04 A2999 RMK A01 T02750042  RH  022%=      5-min Rain = 0
KLA1 250027Z 15005KT 28/04 A2999 RMK A01 T02750043  RH  023%=      5-min Rain = 0
KLA1 250028Z 15005KT 27/04 A2999 RMK A01 T02740038  RH  022%=      5-min Rain = 0
KLA1 250029Z 15006KT 27/04 A2999 RMK A01 T02740037  RH  022%=      5-min Rain = 0
KLA1 250030Z 16005KT 27/04 A2999 RMK A01 T02740039  RH  022%=      5-min Rain = 0
KLA1 250031Z 17005KT 27/04 A2999 RMK A01 T02730041  RH  023%=      5-min Rain = 0
KLA1 250032Z 17005KT 27/04 A2999 RMK A01 T02710041  RH  023%=      5-min Rain = 0
KLA1 250033Z 16004KT 27/04 A2999 RMK A01 T02700040  RH  023%=      5-min Rain = 0
KLA1 250034Z 16004KT 27/04 A2999 RMK A01 T02690043  RH  024%=      5-min Rain = 0
KLA1 250035Z 15004KT 27/04 A2999 RMK A01 T02680043  RH  024%=      5-min Rain = 0
KLA1 250036Z 15004KT 27/04 A2999 RMK A01 T02670043  RH  024%=      5-min Rain = 0
KLA1 250037Z 15005KT 27/04 A2999 RMK A01 T02660043  RH  024%=      5-min Rain = 0
KLA1 250038Z 15005KT 27/04 A2999 RMK A01 T02650042  RH  024%=      5-min Rain = 0
KLA1 250039Z 15005KT 27/04 A2999 RMK A01 T02650044  RH  024%=      5-min Rain = 0
KLA1 250040Z 15005KT 26/05 A2999 RMK A01 T02630046  RH  025%=      5-min Rain = 0
KLA1 250041Z 16004KT 26/05 A2999 RMK A01 T02620046  RH  025%=      5-min Rain = 0
KLA1 250042Z 16004KT 26/05 A2999 RMK A01 T02600047  RH  025%=      5-min Rain = 0
KLA1 250043Z 16004KT 26/05 A2999 RMK A01 T02580048  RH  026%=      5-min Rain = 0
KLA1 250044Z 16004KT 26/05 A2999 RMK A01 T02570048  RH  026%=      5-min Rain = 0
KLA1 250045Z 16005KT 26/05 A2999 RMK A01 T02560048  RH  026%=      5-min Rain = 0
KLA1 250046Z 16005KT 26/05 A2999 RMK A01 T02550049  RH  027%=      5-min Rain = 0
KLA1 250047Z 16005KT 25/05 A2999 RMK A01 T02540049  RH  027%=      5-min Rain = 0
KLA1 250048Z 16004KT 25/05 A2999 RMK A01 T02520050  RH  027%=      5-min Rain = 0
KLA1 250049Z 15004KT 25/05 A30 RMK A01 T02510051  RH  027%=      5-min Rain = 0
KLA1 250050Z 15004KT 25/05 A30 RMK A01 T02500051  RH  028%=      5-min Rain = 0
KLA1 250051Z 15004KT 25/05 A30 RMK A01 T02490051  RH  028%=      5-min Rain = 0
KLA1 250052Z 14003KT 25/05 A30 RMK A01 T02480050  RH  028%=      5-min Rain = 0
KLA1 250053Z 14003KT 25/05 A30 RMK A01 T02480050  RH  028%=      5-min Rain = 0
KLA1 250054Z 13003KT 25/05 A30 RMK A01 T02480050  RH  028%=      5-min Rain = 0
KLA1 250055Z 14003KT 25/05 A30 RMK A01 T02480050  RH  028%=      5-min Rain = 0
KLA1 250056Z 14003KT 25/05 A30 RMK A01 T02470050  RH  028%=      5-min Rain = 0
KLA1 250057Z 14003KT 25/05 A30 RMK A01 T02460051  RH  028%=      5-min Rain = 0
KLA1 250058Z 14003KT 25/05 A30 RMK A01 T02450050  RH  028%=      5-min Rain = 0
KLA1 250059Z 15003KT 25/05 A30 RMK A01 T02450049  RH  028%=      5-min Rain = 0
KLA1 250100Z 14003KT 24/05 A30 RMK A01 T02440050  RH  028%=      5-min Rain = 0
KLA1 250101Z 14003KT 24/05 A30 RMK A01 T02430050  RH  029%=      5-min Rain = 0
KLA1 250102Z 14003KT 24/05 A30 RMK A01 T02430050  RH  029%=      5-min Rain = 0
KLA1 250103Z 14003KT 24/05 A30 RMK A01 T02420050  RH  029%=      5-min Rain = 0
KLA1 250104Z 14003KT 24/05 A30 RMK A01 T02420050  RH  029%=      5-min Rain = 0
KLA1 250105Z 13003KT 24/05 A30 RMK A01 T02410049  RH  029%=      5-min Rain = 0
KLA1 250106Z 13003KT 24/05 A30 RMK A01 T02410049  RH  029%=      5-min Rain = 0
KLA1 250107Z 12003KT 24/05 A30 RMK A01 T02410050  RH  029%=      5-min Rain = 0
KLA1 250108Z 13003KT 24/05 A30 RMK A01 T02400049  RH  029%=      5-min Rain = 0
KLA1 250109Z 13003KT 24/05 A30 RMK A01 T02400049  RH  029%=      5-min Rain = 0
KLA1 250110Z 13003KT 24/05 A30 RMK A01 T02400050  RH  029%=      5-min Rain = 0
KLA1 250111Z 13004KT 24/05 A30 RMK A01 T02400050  RH  029%=      5-min Rain = 0
KLA1 250112Z 13004KT 24/05 A30 RMK A01 T02390050  RH  030%=      5-min Rain = 0
KLA1 250113Z 12004KT 24/05 A30 RMK A01 T02380052  RH  030%=      5-min Rain = 0
KLA1 250114Z 12004KT 24/05 A30 RMK A01 T02370052  RH  030%=      5-min Rain = 0
KLA1 250115Z 13005KT 24/05 A30 RMK A01 T02360051  RH  030%=      5-min Rain = 0
KLA1 250116Z 13005KT 24/05 A30 RMK A01 T02360051  RH  030%=      5-min Rain = 0
KLA1 250117Z 13005KT 24/05 A3001 RMK A01 T02370053  RH  030%=      5-min Rain = 0
KLA1 250118Z 13005KT 24/05 A3001 RMK A01 T02380054  RH  030%=      5-min Rain = 0
KLA1 250119Z 12005KT 24/06 A3001 RMK A01 T02380055  RH  031%=      5-min Rain = 0
KLA1 250120Z 12007KT 24/06 A3001 RMK A01 T02380057  RH  031%=      5-min Rain = 0
KLA1 250121Z 11007KT 24/06 A3001 RMK A01 T02380061  RH  032%=      5-min Rain = 0
KLA1 250122Z 11007KT 24/06 A3001 RMK A01 T02380062  RH  032%=      5-min Rain = 0
KLA1 250123Z 11006KT 24/06 A3001 RMK A01 T02380063  RH  032%=      5-min Rain = 0
KLA1 250124Z 11006KT 24/06 A3001 RMK A01 T02390064  RH  033%=      5-min Rain = 0
KLA1 250125Z 11006KT 24/07 A3001 RMK A01 T02380066  RH  033%=      5-min Rain = 0
KLA1 250126Z 12006KT 24/07 A3001 RMK A01 T02380070  RH  034%=      5-min Rain = 0
KLA1 250127Z 12006KT 24/08 A3001 RMK A01 T02370075  RH  035%=      5-min Rain = 0
KLA1 250128Z 12007KT 24/08 A3001 RMK A01 T02370082  RH  037%=      5-min Rain = 0
KLA1 250129Z 12008KT 24/09 A3001 RMK A01 T02360090  RH  039%=      5-min Rain = 0
KLA1 250130Z 12006KT 24/10 A3001 RMK A01 T02350096  RH  041%=      5-min Rain = 0
KLA1 250131Z 12007KT 23/10 A3002 RMK A01 T02340102  RH  043%=      5-min Rain = 0
KLA1 250132Z 12006KT 23/11 A3002 RMK A01 T02340105  RH  044%=      5-min Rain = 0
KLA1 250133Z 12007KT 23/11 A3002 RMK A01 T02330108  RH  045%=      5-min Rain = 0
KLA1 250134Z 12006KT 23/11 A3002 RMK A01 T02330110  RH  046%=      5-min Rain = 0
KLA1 250135Z 12006KT 23/11 A3002 RMK A01 T02330112  RH  046%=      5-min Rain = 0
KLA1 250136Z 13006KT 23/11 A3002 RMK A01 T02320113  RH  047%=      5-min Rain = 0
KLA1 250137Z 13006KT 23/12 A3002 RMK A01 T02320116  RH  048%=      5-min Rain = 0
KLA1 250138Z 12006KT 23/12 A3002 RMK A01 T02310118  RH  049%=      5-min Rain = 0
KLA1 250139Z 12006KT 23/12 A3002 RMK A01 T02310120  RH  050%=      5-min Rain = 0
KLA1 250140Z 12006KT 23/12 A3002 RMK A01 T02310121  RH  050%=      5-min Rain = 0
KLA1 250141Z 12006KT 23/12 A3002 RMK A01 T02310123  RH  051%=      5-min Rain = 0
KLA1 250142Z 11006KT 23/12 A3002 RMK A01 T02310123  RH  051%=      5-min Rain = 0
KLA1 250143Z 12006KT 23/13 A3002 RMK A01 T02300125  RH  052%=      5-min Rain = 0
KLA1 250144Z 12006KT 23/13 A3002 RMK A01 T02300128  RH  052%=      5-min Rain = 0
KLA1 250145Z 12006KT 23/13 A3002 RMK A01 T02300129  RH  053%=      5-min Rain = 0
KLA1 250146Z 12006KT 23/13 A3002 RMK A01 T02300131  RH  053%=      5-min Rain = 0
KLA1 250147Z 12006KT 23/13 A3002 RMK A01 T02300131  RH  054%=      5-min Rain = 0
KLA1 250148Z 12007KT 23/13 A3002 RMK A01 T02300133  RH  054%=      5-min Rain = 0
KLA1 250149Z 12007KT 23/13 A3002 RMK A01 T02300133  RH  054%=      5-min Rain = 0
KLA1 250150Z 12007KT 23/13 A3002 RMK A01 T02300134  RH  055%=      5-min Rain = 0
KLA1 250151Z 12006KT 23/13 A3002 RMK A01 T02290134  RH  055%=      5-min Rain = 0
KLA1 250152Z 13006KT 23/13 A3002 RMK A01 T02290134  RH  055%=      5-min Rain = 0
KLA1 250153Z 13006KT 23/14 A3002 RMK A01 T02280135  RH  056%=      5-min Rain = 0
KLA1 250154Z 13006KT 23/14 A3003 RMK A01 T02270135  RH  056%=      5-min Rain = 0
KLA1 250155Z 13007KT 23/14 A3003 RMK A01 T02260136  RH  056%=      5-min Rain = 0
KLA1 250156Z 13006KT 23/14 A3003 RMK A01 T02260136  RH  057%=      5-min Rain = 0
KLA1 250157Z 13006KT 23/14 A3003 RMK A01 T02250136  RH  057%=      5-min Rain = 0
KLA1 250158Z 13005KT 22/14 A3003 RMK A01 T02240136  RH  058%=      5-min Rain = 0
KLA1 250159Z 13005KT 22/14 A3003 RMK A01 T02230136  RH  058%=      5-min Rain = 0
KLA1 250200Z 13005KT 22/14 A3003 RMK A01 T02220136  RH  058%=      5-min Rain = 0
KLA1 250201Z 12005KT 22/14 A3003 RMK A01 T02220137  RH  059%=      5-min Rain = 0
KLA1 250202Z 12004KT 22/14 A3003 RMK A01 T02210137  RH  059%=      5-min Rain = 0
KLA1 250203Z 12005KT 22/14 A3003 RMK A01 T02200137  RH  059%=      5-min Rain = 0
KLA1 250204Z 12005KT 22/14 A3003 RMK A01 T02200137  RH  059%=      5-min Rain = 0
KLA1 250205Z 12006KT 22/14 A3003 RMK A01 T02200137  RH  059%=      5-min Rain = 0
KLA1 250206Z 12005KT 22/14 A3003 RMK A01 T02200137  RH  060%=      5-min Rain = 0
KLA1 250207Z 12005KT 22/14 A3003 RMK A01 T02200137  RH  059%=      5-min Rain = 0
KLA1 250208Z 12005KT 22/14 A3003 RMK A01 T02200138  RH  059%=      5-min Rain = 0
KLA1 250209Z 12005KT 22/14 A3003 RMK A01 T02200138  RH  059%=      5-min Rain = 0
KLA1 250210Z 12005KT 22/14 A3003 RMK A01 T02200138  RH  059%=      5-min Rain = 0
KLA1 250211Z 11005KT 22/14 A3003 RMK A01 T02200137  RH  059%=      5-min Rain = 0
KLA1 250212Z 10005KT 22/14 A3003 RMK A01 T02200138  RH  060%=      5-min Rain = 0
KLA1 250213Z 11006KT 22/14 A3003 RMK A01 T02200138  RH  060%=      5-min Rain = 0
KLA1 250214Z 10007KT 22/14 A3003 RMK A01 T02210139  RH  060%=      5-min Rain = 0
KLA1 250215Z 11007KT 22/14 A3003 RMK A01 T02210139  RH  060%=      5-min Rain = 0
KLA1 250216Z 11007KT 22/14 A3003 RMK A01 T02220139  RH  059%=      5-min Rain = 0
KLA1 250217Z 10008KT 22/14 A3003 RMK A01 T02230140  RH  059%=      5-min Rain = 0
KLA1 250218Z 10007KT 22/14 A3003 RMK A01 T02240140  RH  059%=      5-min Rain = 0
KLA1 250219Z 10006KT 23/14 A3003 RMK A01 T02250140  RH  059%=      5-min Rain = 0
KLA1 250220Z 09005KT 23/14 A3004 RMK A01 T02250140  RH  058%=      5-min Rain = 0
KLA1 250221Z 10006KT 23/14 A3004 RMK A01 T02260140  RH  058%=      5-min Rain = 0
KLA1 250222Z 11007KT 23/14 A3004 RMK A01 T02260140  RH  058%=      5-min Rain = 0
KLA1 250223Z 11006KT 23/14 A3004 RMK A01 T02250140  RH  058%=      5-min Rain = 0
KLA1 250224Z 11008KT 23/14 A3004 RMK A01 T02250140  RH  059%=      5-min Rain = 0
KLA1 250225Z 11007KT 23/14 A3004 RMK A01 T02250140  RH  059%=      5-min Rain = 0
KLA1 250226Z 11006KT 23/14 A3004 RMK A01 T02250140  RH  059%=      5-min Rain = 0
KLA1 250227Z 11006KT 23/14 A3004 RMK A01 T02250140  RH  059%=      5-min Rain = 0
KLA1 250228Z 11006KT 23/14 A3004 RMK A01 T02250140  RH  059%=      5-min Rain = 0
KLA1 250229Z 10006KT 22/14 A3004 RMK A01 T02240140  RH  059%=      5-min Rain = 0
KLA1 250230Z 10006KT 22/14 A3004 RMK A01 T02240140  RH  059%=      5-min Rain = 0
KLA1 250231Z 11005KT 22/14 A3004 RMK A01 T02230140  RH  059%=      5-min Rain = 0
KLA1 250232Z 10006KT 22/14 A3004 RMK A01 T02230140  RH  059%=      5-min Rain = 0
KLA1 250233Z 10005KT 22/14 A3004 RMK A01 T02220140  RH  059%=      5-min Rain = 0
KLA1 250234Z 10006KT 22/14 A3004 RMK A01 T02230140  RH  059%=      5-min Rain = 0
KLA1 250235Z 10006KT 22/14 A3004 RMK A01 T02230140  RH  059%=      5-min Rain = 0
KLA1 250236Z 10004KT 22/14 A3004 RMK A01 T02230140  RH  059%=      5-min Rain = 0
KLA1 250237Z 09004KT 22/14 A3005 RMK A01 T02230140  RH  059%=      5-min Rain = 0
KLA1 250238Z 09004KT 22/14 A3005 RMK A01 T02230140  RH  059%=      5-min Rain = 0
KLA1 250239Z 10006KT 22/14 A3005 RMK A01 T02220140  RH  060%=      5-min Rain = 0
KLA1 250240Z 10006KT 22/14 A3005 RMK A01 T02210139  RH  060%=      5-min Rain = 0
KLA1 250241Z 10006KT 22/14 A3005 RMK A01 T02210140  RH  060%=      5-min Rain = 0
KLA1 250242Z 10005KT 22/14 A3005 RMK A01 T02220140  RH  060%=      5-min Rain = 0
KLA1 250243Z 10005KT 22/14 A3005 RMK A01 T02220140  RH  059%=      5-min Rain = 0
KLA1 250244Z 10007KT 22/14 A3005 RMK A01 T02220140  RH  060%=      5-min Rain = 0
KLA1 250245Z 11007KT 22/14 A3005 RMK A01 T02220140  RH  060%=      5-min Rain = 0
KLA1 250246Z 09005KT 22/14 A3005 RMK A01 T02220140  RH  060%=      5-min Rain = 0
KLA1 250247Z 11005KT 22/14 A3005 RMK A01 T02220140  RH  060%=      5-min Rain = 0
KLA1 250248Z 10006KT 22/14 A3005 RMK A01 T02210140  RH  060%=      5-min Rain = 0
KLA1 250249Z 10005KT 22/14 A3005 RMK A01 T02210140  RH  060%=      5-min Rain = 0
KLA1 250250Z 10006KT 22/14 A3005 RMK A01 T02200141  RH  061%=      5-min Rain = 0
KLA1 250251Z 09006KT 22/14 A3005 RMK A01 T02200141  RH  061%=      5-min Rain = 0
KLA1 250252Z 11007KT 22/14 A3005 RMK A01 T02200142  RH  061%=      5-min Rain = 0
KLA1 250253Z 10009KT 22/14 A3005 RMK A01 T02200142  RH  061%=      5-min Rain = 0
KLA1 250254Z 10007KT 22/14 A3005 RMK A01 T02210142  RH  061%=      5-min Rain = 0
KLA1 250255Z 11007KT 22/14 A3005 RMK A01 T02220143  RH  061%=      5-min Rain = 0
KLA1 250256Z 11007KT 22/14 A3005 RMK A01 T02210143  RH  061%=      5-min Rain = 0
KLA1 250257Z 11006KT 22/14 A3005 RMK A01 T02200143  RH  061%=      5-min Rain = 0
KLA1 250258Z 11005KT 22/14 A3006 RMK A01 T02190142  RH  062%=      5-min Rain = 0
KLA1 250259Z 11007KT 22/14 A3006 RMK A01 T02180143  RH  062%=      5-min Rain = 0
KLA1 250300Z 11008KT 22/14 A3006 RMK A01 T02170143  RH  063%=      5-min Rain = 0
KLA1 250301Z 11008KT 22/14 A3006 RMK A01 T02170143  RH  063%=      5-min Rain = 0
KLA1 250302Z 11008KT 22/14 A3006 RMK A01 T02170143  RH  063%=      5-min Rain = 0
KLA1 250303Z 11008KT 22/14 A3006 RMK A01 T02170144  RH  063%=      5-min Rain = 0
KLA1 250304Z 11008KT 22/14 A3006 RMK A01 T02170144  RH  063%=      5-min Rain = 0
KLA1 250305Z 11008KT 22/15 A3006 RMK A01 T02170145  RH  064%=      5-min Rain = 0
KLA1 250306Z 11007KT 22/15 A3006 RMK A01 T02170145  RH  064%=      5-min Rain = 0
KLA1 250307Z 12007KT 22/15 A3006 RMK A01 T02170145  RH  064%=      5-min Rain = 0
KLA1 250308Z 12007KT 22/15 A3006 RMK A01 T02160145  RH  064%=      5-min Rain = 0
KLA1 250309Z 12006KT 22/15 A3006 RMK A01 T02150145  RH  064%=      5-min Rain = 0
KLA1 250310Z 12007KT 21/15 A3006 RMK A01 T02140145  RH  064%=      5-min Rain = 0
KLA1 250311Z 12007KT 21/15 A3006 RMK A01 T02130145  RH  065%=      5-min Rain = 0
KLA1 250312Z 12007KT 21/15 A3006 RMK A01 T02120145  RH  065%=      5-min Rain = 0
KLA1 250313Z 12006KT 21/15 A3006 RMK A01 T02110145  RH  066%=      5-min Rain = 0
KLA1 250314Z 12006KT 21/14 A3006 RMK A01 T02100144  RH  066%=      5-min Rain = 0
KLA1 250315Z 12006KT 21/14 A3006 RMK A01 T02080144  RH  067%=      5-min Rain = 0
KLA1 250316Z 12006KT 21/14 A3006 RMK A01 T02070144  RH  067%=      5-min Rain = 0
KLA1 250317Z 12006KT 21/14 A3006 RMK A01 T02070144  RH  067%=      5-min Rain = 0
KLA1 250318Z 12006KT 21/15 A3006 RMK A01 T02060145  RH  068%=      5-min Rain = 0
KLA1 250319Z 12005KT 21/15 A3007 RMK A01 T02050145  RH  068%=      5-min Rain = 0
KLA1 250320Z 11005KT 21/15 A3007 RMK A01 T02050145  RH  068%=      5-min Rain = 0
KLA1 250321Z 12004KT 20/15 A3007 RMK A01 T02040145  RH  069%=      5-min Rain = 0
KLA1 250322Z 12005KT 20/15 A3007 RMK A01 T02040146  RH  069%=      5-min Rain = 0
KLA1 250323Z 11005KT 20/15 A3007 RMK A01 T02030146  RH  070%=      5-min Rain = 0
KLA1 250324Z 11005KT 20/15 A3007 RMK A01 T02030146  RH  070%=      5-min Rain = 0
KLA1 250325Z 11004KT 20/15 A3007 RMK A01 T02030147  RH  070%=      5-min Rain = 0
KLA1 250326Z 12004KT 20/15 A3007 RMK A01 T02030147  RH  070%=      5-min Rain = 0
KLA1 250327Z 10004KT 20/15 A3007 RMK A01 T02020147  RH  070%=      5-min Rain = 0
KLA1 250328Z 11005KT 20/15 A3007 RMK A01 T02020148  RH  071%=      5-min Rain = 0
KLA1 250329Z 11006KT 20/15 A3007 RMK A01 T02020148  RH  071%=      5-min Rain = 0
KLA1 250330Z 11005KT 20/15 A3007 RMK A01 T02020149  RH  071%=      5-min Rain = 0
KLA1 250331Z 12004KT 20/15 A3007 RMK A01 T02020149  RH  072%=      5-min Rain = 0
KLA1 250332Z 11005KT 20/15 A3007 RMK A01 T02020149  RH  072%=      5-min Rain = 0
KLA1 250333Z 12005KT 20/15 A3007 RMK A01 T02020150  RH  072%=      5-min Rain = 0
KLA1 250334Z 13006KT 20/15 A3007 RMK A01 T02020151  RH  073%=      5-min Rain = 0
KLA1 250335Z 12006KT 20/15 A3007 RMK A01 T02020151  RH  073%=      5-min Rain = 0
KLA1 250336Z 13006KT 20/15 A3007 RMK A01 T02020151  RH  072%=      5-min Rain = 0
KLA1 250337Z 12006KT 20/15 A3007 RMK A01 T02020151  RH  072%=      5-min Rain = 0
KLA1 250338Z 12006KT 20/15 A3007 RMK A01 T02020152  RH  073%=      5-min Rain = 0
KLA1 250339Z 12007KT 20/15 A3007 RMK A01 T02020152  RH  073%=      5-min Rain = 0
KLA1 250340Z 11006KT 20/15 A3007 RMK A01 T02020152  RH  073%=      5-min Rain = 0
KLA1 250341Z 11006KT 20/15 A3007 RMK A01 T02020152  RH  073%=      5-min Rain = 0
KLA1 250342Z 11006KT 20/15 A3008 RMK A01 T02010152  RH  074%=      5-min Rain = 0
KLA1 250343Z 11007KT 20/15 A3008 RMK A01 T02010153  RH  074%=      5-min Rain = 0
KLA1 250344Z 11006KT 20/15 A3008 RMK A01 T02010153  RH  074%=      5-min Rain = 0
KLA1 250345Z 12009KT 20/15 A3008 RMK A01 T02000153  RH  074%=      5-min Rain = 0
KLA1 250346Z 11008KT 20/15 A3008 RMK A01 T02000153  RH  074%=      5-min Rain = 0
KLA1 250347Z 12008KT 20/15 A3008 RMK A01 T02000154  RH  074%=      5-min Rain = 0
KLA1 250348Z 12008KT 20/15 A3008 RMK A01 T02000154  RH  075%=      5-min Rain = 0
KLA1 250349Z 12007KT 20/15 A3008 RMK A01 T02000154  RH  075%=      5-min Rain = 0
KLA1 250350Z 12006KT 20/16 A3008 RMK A01 T02000155  RH  075%=      5-min Rain = 0
KLA1 250351Z 12006KT 20/16 A3008 RMK A01 T02000155  RH  075%=      5-min Rain = 0
KLA1 250352Z 12008KT 20/16 A3008 RMK A01 T01990155  RH  076%=      5-min Rain = 0
KLA1 250353Z 11007KT 20/16 A3008 RMK A01 T02000156  RH  075%=      5-min Rain = 0
KLA1 250354Z 11006KT 20/16 A3008 RMK A01 T02000155  RH  075%=      5-min Rain = 0
KLA1 250355Z 11006KT 20/16 A3008 RMK A01 T02000156  RH  076%=      5-min Rain = 0
KLA1 250356Z 12007KT 20/16 A3008 RMK A01 T02000156  RH  076%=      5-min Rain = 0
KLA1 250357Z 12006KT 20/16 A3008 RMK A01 T01990156  RH  076%=      5-min Rain = 0
KLA1 250358Z 12006KT 20/16 A3008 RMK A01 T01990156  RH  076%=      5-min Rain = 0
KLA1 250359Z 12006KT 20/16 A3008 RMK A01 T01980156  RH  077%=      5-min Rain = 0
KLA1 250400Z 12006KT 20/16 A3008 RMK A01 T01980157  RH  077%=      5-min Rain = 0
KLA1 250401Z 13006KT 20/16 A3008 RMK A01 T01980157  RH  077%=      5-min Rain = 0
KLA1 250402Z 12005KT 20/16 A3008 RMK A01 T01980157  RH  077%=      5-min Rain = 0
KLA1 250403Z 13005KT 20/16 A3008 RMK A01 T01970157  RH  078%=      5-min Rain = 0
KLA1 250404Z 12005KT 20/16 A3008 RMK A01 T01970157  RH  078%=      5-min Rain = 0
KLA1 250405Z 11005KT 20/16 A3008 RMK A01 T01960157  RH  078%=      5-min Rain = 0
KLA1 250406Z 12004KT 20/16 A3008 RMK A01 T01960157  RH  078%=      5-min Rain = 0
KLA1 250407Z 11005KT 20/16 A3008 RMK A01 T01950157  RH  078%=      5-min Rain = 0
KLA1 250408Z 11005KT 20/16 A3008 RMK A01 T01950157  RH  079%=      5-min Rain = 0
KLA1 250409Z 12005KT 20/16 A3008 RMK A01 T01950157  RH  079%=      5-min Rain = 0
KLA1 250410Z 12004KT 20/16 A3008 RMK A01 T01950158  RH  079%=      5-min Rain = 0
KLA1 250411Z 12006KT 20/16 A3008 RMK A01 T01950158  RH  079%=      5-min Rain = 0
KLA1 250412Z 11005KT 20/16 A3008 RMK A01 T01950158  RH  079%=      5-min Rain = 0
KLA1 250413Z 12005KT 20/16 A3009 RMK A01 T01950158  RH  079%=      5-min Rain = 0
KLA1 250414Z 12006KT 20/16 A3009 RMK A01 T01950158  RH  079%=      5-min Rain = 0
KLA1 250415Z 13005KT 20/16 A3009 RMK A01 T01950158  RH  079%=      5-min Rain = 0
KLA1 250416Z 12005KT 20/16 A3009 RMK A01 T01950158  RH  079%=      5-min Rain = 0
KLA1 250417Z 13005KT 19/16 A3009 RMK A01 T01940158  RH  080%=      5-min Rain = 0
KLA1 250418Z 13005KT 19/16 A3009 RMK A01 T01930158  RH  080%=      5-min Rain = 0
KLA1 250419Z 13006KT 19/16 A3009 RMK A01 T01930159  RH  081%=      5-min Rain = 0
KLA1 250420Z 12006KT 19/16 A3009 RMK A01 T01930159  RH  081%=      5-min Rain = 0
KLA1 250421Z 12005KT 19/16 A3009 RMK A01 T01920159  RH  081%=      5-min Rain = 0
KLA1 250422Z 12005KT 19/16 A3009 RMK A01 T01920159  RH  081%=      5-min Rain = 0
KLA1 250423Z 12007KT 19/16 A3009 RMK A01 T01920159  RH  081%=      5-min Rain = 0
KLA1 250424Z 12006KT 19/16 A3009 RMK A01 T01920159  RH  082%=      5-min Rain = 0
KLA1 250425Z 13005KT 19/16 A3009 RMK A01 T01920160  RH  082%=      5-min Rain = 0
KLA1 250426Z 13005KT 19/16 A3009 RMK A01 T01920159  RH  081%=      5-min Rain = 0
KLA1 250427Z 12005KT 19/16 A3009 RMK A01 T01920159  RH  081%=      5-min Rain = 0
KLA1 250428Z 12005KT 19/16 A3009 RMK A01 T01920159  RH  082%=      5-min Rain = 0
KLA1 250429Z 13004KT 19/16 A3009 RMK A01 T01910160  RH  082%=      5-min Rain = 0
KLA1 250430Z 12004KT 19/16 A3009 RMK A01 T01910160  RH  082%=      5-min Rain = 0
KLA1 250431Z 12004KT 19/16 A3009 RMK A01 T01900159  RH  082%=      5-min Rain = 0
KLA1 250432Z 13004KT 19/16 A3009 RMK A01 T01900159  RH  082%=      5-min Rain = 0
KLA1 250433Z 12005KT 19/16 A3009 RMK A01 T01890159  RH  083%=      5-min Rain = 0
KLA1 250434Z 11005KT 19/16 A3009 RMK A01 T01890159  RH  083%=      5-min Rain = 0
KLA1 250435Z 12005KT 19/16 A3009 RMK A01 T01880160  RH  084%=      5-min Rain = 0
KLA1 250436Z 13005KT 19/16 A3009 RMK A01 T01880160  RH  084%=      5-min Rain = 0
KLA1 250437Z 12005KT 19/16 A3009 RMK A01 T01880160  RH  084%=      5-min Rain = 0
KLA1 250438Z 12005KT 19/16 A3009 RMK A01 T01880160  RH  084%=      5-min Rain = 0
KLA1 250439Z 12005KT 19/16 A3009 RMK A01 T01880160  RH  084%=      5-min Rain = 0
KLA1 250440Z 14005KT 19/16 A3009 RMK A01 T01880161  RH  084%=      5-min Rain = 0
KLA1 250441Z 13006KT 19/16 A3009 RMK A01 T01890161  RH  084%=      5-min Rain = 0
KLA1 250442Z 13005KT 19/16 A3009 RMK A01 T01890161  RH  084%=      5-min Rain = 0
KLA1 250443Z 12005KT 19/16 A3009 RMK A01 T01890161  RH  084%=      5-min Rain = 0
KLA1 250444Z 12005KT 19/16 A3009 RMK A01 T01890161  RH  084%=      5-min Rain = 0
KLA1 250445Z 11004KT 19/16 A3009 RMK A01 T01880161  RH  084%=      5-min Rain = 0
KLA1 250446Z 12005KT 19/16 A3009 RMK A01 T01870161  RH  085%=      5-min Rain = 0
KLA1 250447Z 11005KT 19/16 A3009 RMK A01 T01870161  RH  085%=      5-min Rain = 0
KLA1 250448Z 11005KT 19/16 A3009 RMK A01 T01870161  RH  085%=      5-min Rain = 0
KLA1 250449Z 11005KT 19/16 A3009 RMK A01 T01860161  RH  085%=      5-min Rain = 0
KLA1 250450Z 12006KT 19/16 A3009 RMK A01 T01860161  RH  085%=      5-min Rain = 0
KLA1 250451Z 12006KT 19/16 A3009 RMK A01 T01860161  RH  086%=      5-min Rain = 0
KLA1 250452Z 12005KT 19/16 A3009 RMK A01 T01860162  RH  086%=      5-min Rain = 0
KLA1 250453Z 12005KT 19/16 A3009 RMK A01 T01850161  RH  086%=      5-min Rain = 0
KLA1 250454Z 11005KT 19/16 A3009 RMK A01 T01850162  RH  086%=      5-min Rain = 0
KLA1 250455Z 11006KT 19/16 A3009 RMK A01 T01850162  RH  086%=      5-min Rain = 0
KLA1 250456Z 11006KT 19/16 A3009 RMK A01 T01850162  RH  086%=      5-min Rain = 0
KLA1 250457Z 12006KT 19/16 A3009 RMK A01 T01850162  RH  086%=      5-min Rain = 0
KLA1 250458Z 12006KT 19/16 A3009 RMK A01 T01850162  RH  086%=      5-min Rain = 0
KLA1 250459Z 12007KT 19/16 A3009 RMK A01 T01850162  RH  086%=      5-min Rain = 0

Page generated in 0.1242 seconds.